<?xml version="1.0" encoding="utf-8"?>
<gpx xmlns:xsi="http://www.w3.org/2001/XMLSchema-instance" xmlns:xsd="http://www.w3.org/2001/XMLSchema" version="1.1" creator="Shapelink.com" xmlns="http://www.topografix.com/GPX/1/1" xmlns:gpxtpx="http://www.garmin.com/xmlschemas/TrackPointExtension/v1">
  <metadata>
    <name>Running 13.98 km, 2012-08-14</name>
    <desc></desc>
    <author><name>Ulf Andrae</name></author> 
    <time>2012-08-14T15:01:21Z</time>
  </metadata>
  <trk>
    <name>Running 13.98 km, 2012-08-14</name>
    <trkseg>
      <trkpt lat="58.6618073937" lon="16.0063879844">
        <ele>74.64</ele>
        <time>2012-08-14T15:01:21Z</time>
      </trkpt>
      <trkpt lat="58.6618031189" lon="16.0062780138">
        <ele>76.08</ele>
        <time>2012-08-14T15:01:26Z</time>
      </trkpt>
      <trkpt lat="58.6618597806" lon="16.0063222703">
        <ele>75.6</ele>
        <time>2012-08-14T15:01:31Z</time>
      </trkpt>
      <trkpt lat="58.66186372" lon="16.0063490085">
        <ele>76.56</ele>
        <time>2012-08-14T15:01:33Z</time>
      </trkpt>
      <trkpt lat="58.6618023645" lon="16.0067629907">
        <ele>77.04</ele>
        <time>2012-08-14T15:01:41Z</time>
      </trkpt>
      <trkpt lat="58.6617760453" lon="16.0068416968">
        <ele>77.04</ele>
        <time>2012-08-14T15:01:43Z</time>
      </trkpt>
      <trkpt lat="58.6617160309" lon="16.0071231611">
        <ele>78</ele>
        <time>2012-08-14T15:01:49Z</time>
      </trkpt>
      <trkpt lat="58.6615887098" lon="16.00764242">
        <ele>78.97</ele>
        <time>2012-08-14T15:02:00Z</time>
      </trkpt>
      <trkpt lat="58.661520062" lon="16.0079030972">
        <ele>79.45</ele>
        <time>2012-08-14T15:02:06Z</time>
      </trkpt>
      <trkpt lat="58.6614757217" lon="16.0080231261">
        <ele>78.97</ele>
        <time>2012-08-14T15:02:10Z</time>
      </trkpt>
      <trkpt lat="58.6614188924" lon="16.0082036722">
        <ele>79.45</ele>
        <time>2012-08-14T15:02:16Z</time>
      </trkpt>
      <trkpt lat="58.6613602191" lon="16.0083951987">
        <ele>79.45</ele>
        <time>2012-08-14T15:02:22Z</time>
      </trkpt>
      <trkpt lat="58.6613367498" lon="16.0086620785">
        <ele>79.93</ele>
        <time>2012-08-14T15:02:25Z</time>
      </trkpt>
      <trkpt lat="58.6611475702" lon="16.0092101712">
        <ele>80.89</ele>
        <time>2012-08-14T15:02:37Z</time>
      </trkpt>
      <trkpt lat="58.6611073371" lon="16.009315867">
        <ele>80.89</ele>
        <time>2012-08-14T15:02:40Z</time>
      </trkpt>
      <trkpt lat="58.6612888053" lon="16.0098876804">
        <ele>80.41</ele>
        <time>2012-08-14T15:02:52Z</time>
      </trkpt>
      <trkpt lat="58.6613655835" lon="16.0101144947">
        <ele>79.45</ele>
        <time>2012-08-14T15:02:57Z</time>
      </trkpt>
      <trkpt lat="58.6614852771" lon="16.0104501061">
        <ele>79.93</ele>
        <time>2012-08-14T15:03:05Z</time>
      </trkpt>
      <trkpt lat="58.6615016218" lon="16.0104882438">
        <ele>80.41</ele>
        <time>2012-08-14T15:03:06Z</time>
      </trkpt>
      <trkpt lat="58.6616357323" lon="16.0109143797">
        <ele>80.89</ele>
        <time>2012-08-14T15:03:17Z</time>
      </trkpt>
      <trkpt lat="58.6617798172" lon="16.0113477241">
        <ele>82.33</ele>
        <time>2012-08-14T15:03:26Z</time>
      </trkpt>
      <trkpt lat="58.6618340481" lon="16.0114903841">
        <ele>82.81</ele>
        <time>2012-08-14T15:03:32Z</time>
      </trkpt>
      <trkpt lat="58.661861876" lon="16.0115098301">
        <ele>82.81</ele>
        <time>2012-08-14T15:03:34Z</time>
      </trkpt>
      <trkpt lat="58.6621509679" lon="16.011325093">
        <ele>82.81</ele>
        <time>2012-08-14T15:03:47Z</time>
      </trkpt>
      <trkpt lat="58.662186591" lon="16.0113050602">
        <ele>82.81</ele>
        <time>2012-08-14T15:03:48Z</time>
      </trkpt>
      <trkpt lat="58.6625440791" lon="16.0112523381">
        <ele>82.33</ele>
        <time>2012-08-14T15:04:00Z</time>
      </trkpt>
      <trkpt lat="58.6627871543" lon="16.0109965224">
        <ele>81.85</ele>
        <time>2012-08-14T15:04:09Z</time>
      </trkpt>
      <trkpt lat="58.6629728135" lon="16.0107693728">
        <ele>80.89</ele>
        <time>2012-08-14T15:04:15Z</time>
      </trkpt>
      <trkpt lat="58.663161071" lon="16.0106806085">
        <ele>80.41</ele>
        <time>2012-08-14T15:04:22Z</time>
      </trkpt>
      <trkpt lat="58.6633470654" lon="16.0106195882">
        <ele>80.41</ele>
        <time>2012-08-14T15:04:28Z</time>
      </trkpt>
      <trkpt lat="58.6636218242" lon="16.0104409698">
        <ele>79.45</ele>
        <time>2012-08-14T15:04:38Z</time>
      </trkpt>
      <trkpt lat="58.6639931425" lon="16.0103584919">
        <ele>79.93</ele>
        <time>2012-08-14T15:04:51Z</time>
      </trkpt>
      <trkpt lat="58.6642456055" lon="16.0103953723">
        <ele>80.41</ele>
        <time>2012-08-14T15:05:00Z</time>
      </trkpt>
      <trkpt lat="58.6644885968" lon="16.0104280617">
        <ele>80.89</ele>
        <time>2012-08-14T15:05:10Z</time>
      </trkpt>
      <trkpt lat="58.6647526268" lon="16.0103311669">
        <ele>80.89</ele>
        <time>2012-08-14T15:05:20Z</time>
      </trkpt>
      <trkpt lat="58.6649578996" lon="16.010011984">
        <ele>81.85</ele>
        <time>2012-08-14T15:05:30Z</time>
      </trkpt>
      <trkpt lat="58.6651324946" lon="16.0095425975">
        <ele>81.37</ele>
        <time>2012-08-14T15:05:41Z</time>
      </trkpt>
      <trkpt lat="58.6652785074" lon="16.0090591293">
        <ele>81.37</ele>
        <time>2012-08-14T15:05:52Z</time>
      </trkpt>
      <trkpt lat="58.6654577963" lon="16.0084787663">
        <ele>81.85</ele>
        <time>2012-08-14T15:06:07Z</time>
      </trkpt>
      <trkpt lat="58.6656721216" lon="16.0078843217">
        <ele>81.37</ele>
        <time>2012-08-14T15:06:21Z</time>
      </trkpt>
      <trkpt lat="58.665954005" lon="16.0072264262">
        <ele>80.89</ele>
        <time>2012-08-14T15:06:35Z</time>
      </trkpt>
      <trkpt lat="58.6662987527" lon="16.0070039704">
        <ele>79.45</ele>
        <time>2012-08-14T15:06:48Z</time>
      </trkpt>
      <trkpt lat="58.6666651256" lon="16.0072428547">
        <ele>78</ele>
        <time>2012-08-14T15:07:00Z</time>
      </trkpt>
      <trkpt lat="58.6670029163" lon="16.0074021108">
        <ele>76.56</ele>
        <time>2012-08-14T15:07:11Z</time>
      </trkpt>
      <trkpt lat="58.6671350151" lon="16.0074561741">
        <ele>75.12</ele>
        <time>2012-08-14T15:07:15Z</time>
      </trkpt>
      <trkpt lat="58.6674276274" lon="16.0076633748">
        <ele>74.64</ele>
        <time>2012-08-14T15:07:25Z</time>
      </trkpt>
      <trkpt lat="58.6676947586" lon="16.0079027619">
        <ele>75.6</ele>
        <time>2012-08-14T15:07:35Z</time>
      </trkpt>
      <trkpt lat="58.6678219121" lon="16.0082512815">
        <ele>77.04</ele>
        <time>2012-08-14T15:07:43Z</time>
      </trkpt>
      <trkpt lat="58.6678467225" lon="16.0087350011">
        <ele>78.97</ele>
        <time>2012-08-14T15:07:52Z</time>
      </trkpt>
      <trkpt lat="58.6678504944" lon="16.0091858637">
        <ele>80.89</ele>
        <time>2012-08-14T15:08:01Z</time>
      </trkpt>
      <trkpt lat="58.6678728741" lon="16.0097479541">
        <ele>82.81</ele>
        <time>2012-08-14T15:08:12Z</time>
      </trkpt>
      <trkpt lat="58.6679060664" lon="16.0102188494">
        <ele>83.77</ele>
        <time>2012-08-14T15:08:22Z</time>
      </trkpt>
      <trkpt lat="58.6679105088" lon="16.0102667939">
        <ele>83.77</ele>
        <time>2012-08-14T15:08:23Z</time>
      </trkpt>
      <trkpt lat="58.668074375" lon="16.0108281299">
        <ele>83.77</ele>
        <time>2012-08-14T15:08:33Z</time>
      </trkpt>
      <trkpt lat="58.6680829246" lon="16.0108981188">
        <ele>83.77</ele>
        <time>2012-08-14T15:08:34Z</time>
      </trkpt>
      <trkpt lat="58.6681485549" lon="16.0110894777">
        <ele>83.77</ele>
        <time>2012-08-14T15:08:37Z</time>
      </trkpt>
      <trkpt lat="58.6682588607" lon="16.0115921404">
        <ele>83.77</ele>
        <time>2012-08-14T15:08:48Z</time>
      </trkpt>
      <trkpt lat="58.6683726031" lon="16.012004111">
        <ele>83.77</ele>
        <time>2012-08-14T15:08:55Z</time>
      </trkpt>
      <trkpt lat="58.6685169395" lon="16.0124164168">
        <ele>84.73</ele>
        <time>2012-08-14T15:09:04Z</time>
      </trkpt>
      <trkpt lat="58.6686064582" lon="16.0125842225">
        <ele>85.21</ele>
        <time>2012-08-14T15:09:09Z</time>
      </trkpt>
      <trkpt lat="58.6686549895" lon="16.012677094">
        <ele>85.21</ele>
        <time>2012-08-14T15:09:12Z</time>
      </trkpt>
      <trkpt lat="58.6687586736" lon="16.0127998888">
        <ele>86.18</ele>
        <time>2012-08-14T15:09:17Z</time>
      </trkpt>
      <trkpt lat="58.6688552331" lon="16.0129320715">
        <ele>86.66</ele>
        <time>2012-08-14T15:09:21Z</time>
      </trkpt>
      <trkpt lat="58.6690855678" lon="16.0132054891">
        <ele>86.66</ele>
        <time>2012-08-14T15:09:31Z</time>
      </trkpt>
      <trkpt lat="58.6692009028" lon="16.0136265121">
        <ele>85.69</ele>
        <time>2012-08-14T15:09:40Z</time>
      </trkpt>
      <trkpt lat="58.6691807024" lon="16.0139687452">
        <ele>86.66</ele>
        <time>2012-08-14T15:09:48Z</time>
      </trkpt>
      <trkpt lat="58.6694827024" lon="16.013776632">
        <ele>86.66</ele>
        <time>2012-08-14T15:10:02Z</time>
      </trkpt>
      <trkpt lat="58.6695499253" lon="16.0136897955">
        <ele>88.1</ele>
        <time>2012-08-14T15:10:05Z</time>
      </trkpt>
      <trkpt lat="58.669828875" lon="16.0136623029">
        <ele>90.98</ele>
        <time>2012-08-14T15:10:16Z</time>
      </trkpt>
      <trkpt lat="58.6701622233" lon="16.0135659948">
        <ele>88.58</ele>
        <time>2012-08-14T15:10:28Z</time>
      </trkpt>
      <trkpt lat="58.6703615449" lon="16.0138930567">
        <ele>89.54</ele>
        <time>2012-08-14T15:10:37Z</time>
      </trkpt>
      <trkpt lat="58.6703594495" lon="16.0139197949">
        <ele>90.02</ele>
        <time>2012-08-14T15:10:38Z</time>
      </trkpt>
      <trkpt lat="58.6703841761" lon="16.0142045282">
        <ele>93.39</ele>
        <time>2012-08-14T15:10:47Z</time>
      </trkpt>
      <trkpt lat="58.6703986768" lon="16.014521867">
        <ele>93.39</ele>
        <time>2012-08-14T15:10:54Z</time>
      </trkpt>
      <trkpt lat="58.6705706734" lon="16.01490031">
        <ele>94.83</ele>
        <time>2012-08-14T15:11:04Z</time>
      </trkpt>
      <trkpt lat="58.6706046201" lon="16.01495957">
        <ele>94.83</ele>
        <time>2012-08-14T15:11:06Z</time>
      </trkpt>
      <trkpt lat="58.6708379723" lon="16.0151373502">
        <ele>96.75</ele>
        <time>2012-08-14T15:11:17Z</time>
      </trkpt>
      <trkpt lat="58.6711048521" lon="16.0153632425">
        <ele>94.35</ele>
        <time>2012-08-14T15:11:29Z</time>
      </trkpt>
      <trkpt lat="58.6711140722" lon="16.0156405158">
        <ele>94.35</ele>
        <time>2012-08-14T15:11:40Z</time>
      </trkpt>
      <trkpt lat="58.6710611824" lon="16.0157966707">
        <ele>94.83</ele>
        <time>2012-08-14T15:11:48Z</time>
      </trkpt>
      <trkpt lat="58.6709429976" lon="16.0163996648">
        <ele>94.83</ele>
        <time>2012-08-14T15:11:58Z</time>
      </trkpt>
      <trkpt lat="58.6707678158" lon="16.0169178341">
        <ele>95.31</ele>
        <time>2012-08-14T15:12:08Z</time>
      </trkpt>
      <trkpt lat="58.670736216" lon="16.0170196742">
        <ele>95.79</ele>
        <time>2012-08-14T15:12:11Z</time>
      </trkpt>
      <trkpt lat="58.6706948094" lon="16.0173862986">
        <ele>96.27</ele>
        <time>2012-08-14T15:12:18Z</time>
      </trkpt>
      <trkpt lat="58.6706345435" lon="16.0176085029">
        <ele>96.75</ele>
        <time>2012-08-14T15:12:23Z</time>
      </trkpt>
      <trkpt lat="58.6706125829" lon="16.017713109">
        <ele>97.23</ele>
        <time>2012-08-14T15:12:26Z</time>
      </trkpt>
      <trkpt lat="58.6705917958" lon="16.0177856963">
        <ele>97.71</ele>
        <time>2012-08-14T15:12:28Z</time>
      </trkpt>
      <trkpt lat="58.6705519818" lon="16.0179228242">
        <ele>98.19</ele>
        <time>2012-08-14T15:12:32Z</time>
      </trkpt>
      <trkpt lat="58.6706075538" lon="16.0185262375">
        <ele>99.63</ele>
        <time>2012-08-14T15:12:44Z</time>
      </trkpt>
      <trkpt lat="58.6707605235" lon="16.0191001464">
        <ele>101.56</ele>
        <time>2012-08-14T15:12:56Z</time>
      </trkpt>
      <trkpt lat="58.6709299218" lon="16.0195318982">
        <ele>104.44</ele>
        <time>2012-08-14T15:13:07Z</time>
      </trkpt>
      <trkpt lat="58.6711357813" lon="16.0194503423">
        <ele>107.32</ele>
        <time>2012-08-14T15:13:18Z</time>
      </trkpt>
      <trkpt lat="58.6711531319" lon="16.0194284655">
        <ele>107.81</ele>
        <time>2012-08-14T15:13:19Z</time>
      </trkpt>
      <trkpt lat="58.6712545529" lon="16.0190206859">
        <ele>110.21</ele>
        <time>2012-08-14T15:13:31Z</time>
      </trkpt>
      <trkpt lat="58.6713177525" lon="16.0187743418">
        <ele>111.17</ele>
        <time>2012-08-14T15:13:38Z</time>
      </trkpt>
      <trkpt lat="58.6714138091" lon="16.0186466854">
        <ele>111.17</ele>
        <time>2012-08-14T15:13:42Z</time>
      </trkpt>
      <trkpt lat="58.6715899128" lon="16.0181483813">
        <ele>111.17</ele>
        <time>2012-08-14T15:13:55Z</time>
      </trkpt>
      <trkpt lat="58.6716559622" lon="16.0178753827">
        <ele>110.21</ele>
        <time>2012-08-14T15:14:01Z</time>
      </trkpt>
      <trkpt lat="58.6717882287" lon="16.0177984368">
        <ele>108.77</ele>
        <time>2012-08-14T15:14:05Z</time>
      </trkpt>
      <trkpt lat="58.6718871351" lon="16.0176868737">
        <ele>108.29</ele>
        <time>2012-08-14T15:14:09Z</time>
      </trkpt>
      <trkpt lat="58.6720019672" lon="16.0171583947">
        <ele>106.84</ele>
        <time>2012-08-14T15:14:23Z</time>
      </trkpt>
      <trkpt lat="58.6720559467" lon="16.0169055127">
        <ele>107.32</ele>
        <time>2012-08-14T15:14:28Z</time>
      </trkpt>
      <trkpt lat="58.6722897179" lon="16.0163403209">
        <ele>105.4</ele>
        <time>2012-08-14T15:14:41Z</time>
      </trkpt>
      <trkpt lat="58.6723317113" lon="16.0161979124">
        <ele>105.4</ele>
        <time>2012-08-14T15:14:44Z</time>
      </trkpt>
      <trkpt lat="58.6724274326" lon="16.0160581023">
        <ele>104.44</ele>
        <time>2012-08-14T15:14:48Z</time>
      </trkpt>
      <trkpt lat="58.6726138461" lon="16.0155431181">
        <ele>105.88</ele>
        <time>2012-08-14T15:15:00Z</time>
      </trkpt>
      <trkpt lat="58.6726737767" lon="16.0149533674">
        <ele>103.96</ele>
        <time>2012-08-14T15:15:12Z</time>
      </trkpt>
      <trkpt lat="58.6726930551" lon="16.0142788757">
        <ele>103.48</ele>
        <time>2012-08-14T15:15:24Z</time>
      </trkpt>
      <trkpt lat="58.672798248" lon="16.0138045438">
        <ele>104.92</ele>
        <time>2012-08-14T15:15:33Z</time>
      </trkpt>
      <trkpt lat="58.6728728469" lon="16.0136624705">
        <ele>104.92</ele>
        <time>2012-08-14T15:15:40Z</time>
      </trkpt>
      <trkpt lat="58.672883492" lon="16.0128948558">
        <ele>103.48</ele>
        <time>2012-08-14T15:15:53Z</time>
      </trkpt>
      <trkpt lat="58.6728939693" lon="16.0123828053">
        <ele>102.52</ele>
        <time>2012-08-14T15:16:00Z</time>
      </trkpt>
      <trkpt lat="58.6730999127" lon="16.0118427593">
        <ele>101.56</ele>
        <time>2012-08-14T15:16:11Z</time>
      </trkpt>
      <trkpt lat="58.6731590889" lon="16.0115856864">
        <ele>101.08</ele>
        <time>2012-08-14T15:16:17Z</time>
      </trkpt>
      <trkpt lat="58.6731547303" lon="16.0113836825">
        <ele>100.11</ele>
        <time>2012-08-14T15:16:20Z</time>
      </trkpt>
      <trkpt lat="58.6731885932" lon="16.0111934971">
        <ele>100.11</ele>
        <time>2012-08-14T15:16:24Z</time>
      </trkpt>
      <trkpt lat="58.6733247153" lon="16.0108267888">
        <ele>97.71</ele>
        <time>2012-08-14T15:16:32Z</time>
      </trkpt>
      <trkpt lat="58.6736143939" lon="16.0108172335">
        <ele>96.75</ele>
        <time>2012-08-14T15:16:42Z</time>
      </trkpt>
      <trkpt lat="58.6738480814" lon="16.0111868754">
        <ele>97.71</ele>
        <time>2012-08-14T15:16:50Z</time>
      </trkpt>
      <trkpt lat="58.6739162263" lon="16.0114307888">
        <ele>97.71</ele>
        <time>2012-08-14T15:16:55Z</time>
      </trkpt>
      <trkpt lat="58.673899211" lon="16.011689622">
        <ele>96.27</ele>
        <time>2012-08-14T15:17:02Z</time>
      </trkpt>
      <trkpt lat="58.6740708724" lon="16.0122368764">
        <ele>94.83</ele>
        <time>2012-08-14T15:17:13Z</time>
      </trkpt>
      <trkpt lat="58.674123846" lon="16.0123911873">
        <ele>96.75</ele>
        <time>2012-08-14T15:17:16Z</time>
      </trkpt>
      <trkpt lat="58.6741879676" lon="16.012558993">
        <ele>97.71</ele>
        <time>2012-08-14T15:17:20Z</time>
      </trkpt>
      <trkpt lat="58.6743165459" lon="16.012943387">
        <ele>97.71</ele>
        <time>2012-08-14T15:17:30Z</time>
      </trkpt>
      <trkpt lat="58.674398018" lon="16.0131854564">
        <ele>97.71</ele>
        <time>2012-08-14T15:17:35Z</time>
      </trkpt>
      <trkpt lat="58.6744680908" lon="16.0133762285">
        <ele>97.71</ele>
        <time>2012-08-14T15:17:40Z</time>
      </trkpt>
      <trkpt lat="58.6744724493" lon="16.0138614569">
        <ele>97.71</ele>
        <time>2012-08-14T15:17:50Z</time>
      </trkpt>
      <trkpt lat="58.6744219903" lon="16.0140983295">
        <ele>97.71</ele>
        <time>2012-08-14T15:17:56Z</time>
      </trkpt>
      <trkpt lat="58.6744053103" lon="16.0143012553">
        <ele>98.19</ele>
        <time>2012-08-14T15:18:00Z</time>
      </trkpt>
      <trkpt lat="58.6744084954" lon="16.0147159081">
        <ele>97.71</ele>
        <time>2012-08-14T15:18:08Z</time>
      </trkpt>
      <trkpt lat="58.6744004488" lon="16.0151921678">
        <ele>97.23</ele>
        <time>2012-08-14T15:18:19Z</time>
      </trkpt>
      <trkpt lat="58.6745260097" lon="16.0157837626">
        <ele>96.75</ele>
        <time>2012-08-14T15:18:29Z</time>
      </trkpt>
      <trkpt lat="58.674743101" lon="16.0164243076">
        <ele>96.75</ele>
        <time>2012-08-14T15:18:41Z</time>
      </trkpt>
      <trkpt lat="58.6750139203" lon="16.0170053411">
        <ele>93.87</ele>
        <time>2012-08-14T15:18:52Z</time>
      </trkpt>
      <trkpt lat="58.6750431731" lon="16.0170585662">
        <ele>93.39</ele>
        <time>2012-08-14T15:18:53Z</time>
      </trkpt>
      <trkpt lat="58.675143756" lon="16.0174330696">
        <ele>92.42</ele>
        <time>2012-08-14T15:19:00Z</time>
      </trkpt>
      <trkpt lat="58.6751117371" lon="16.0175948404">
        <ele>93.39</ele>
        <time>2012-08-14T15:19:05Z</time>
      </trkpt>
      <trkpt lat="58.6749967374" lon="16.0177180544">
        <ele>95.31</ele>
        <time>2012-08-14T15:19:11Z</time>
      </trkpt>
      <trkpt lat="58.6748952325" lon="16.0180967487">
        <ele>95.31</ele>
        <time>2012-08-14T15:19:18Z</time>
      </trkpt>
      <trkpt lat="58.6748341285" lon="16.0184522253">
        <ele>95.79</ele>
        <time>2012-08-14T15:19:25Z</time>
      </trkpt>
      <trkpt lat="58.6747751199" lon="16.018568147">
        <ele>96.27</ele>
        <time>2012-08-14T15:19:29Z</time>
      </trkpt>
      <trkpt lat="58.6747586913" lon="16.0186274908">
        <ele>96.27</ele>
        <time>2012-08-14T15:19:30Z</time>
      </trkpt>
      <trkpt lat="58.6745877005" lon="16.0191634297">
        <ele>97.71</ele>
        <time>2012-08-14T15:19:43Z</time>
      </trkpt>
      <trkpt lat="58.6744302046" lon="16.0197259393">
        <ele>98.19</ele>
        <time>2012-08-14T15:19:54Z</time>
      </trkpt>
      <trkpt lat="58.6744018737" lon="16.0198368318">
        <ele>97.71</ele>
        <time>2012-08-14T15:19:56Z</time>
      </trkpt>
      <trkpt lat="58.6742570344" lon="16.0199706908">
        <ele>98.19</ele>
        <time>2012-08-14T15:20:02Z</time>
      </trkpt>
      <trkpt lat="58.6741214152" lon="16.0204465315">
        <ele>98.67</ele>
        <time>2012-08-14T15:20:13Z</time>
      </trkpt>
      <trkpt lat="58.6741131172" lon="16.0205080546">
        <ele>99.15</ele>
        <time>2012-08-14T15:20:14Z</time>
      </trkpt>
      <trkpt lat="58.6740971077" lon="16.0206402373">
        <ele>98.67</ele>
        <time>2012-08-14T15:20:17Z</time>
      </trkpt>
      <trkpt lat="58.6739739776" lon="16.0209839791">
        <ele>96.75</ele>
        <time>2012-08-14T15:20:24Z</time>
      </trkpt>
      <trkpt lat="58.6739174835" lon="16.0210722405">
        <ele>96.75</ele>
        <time>2012-08-14T15:20:26Z</time>
      </trkpt>
      <trkpt lat="58.6738608219" lon="16.0211207718">
        <ele>96.75</ele>
        <time>2012-08-14T15:20:28Z</time>
      </trkpt>
      <trkpt lat="58.6737584788" lon="16.0211690515">
        <ele>97.71</ele>
        <time>2012-08-14T15:20:33Z</time>
      </trkpt>
      <trkpt lat="58.6736316606" lon="16.0213992186">
        <ele>98.67</ele>
        <time>2012-08-14T15:20:40Z</time>
      </trkpt>
      <trkpt lat="58.6735858954" lon="16.0214647651">
        <ele>98.67</ele>
        <time>2012-08-14T15:20:42Z</time>
      </trkpt>
      <trkpt lat="58.673540717" lon="16.0215066746">
        <ele>98.67</ele>
        <time>2012-08-14T15:20:45Z</time>
      </trkpt>
      <trkpt lat="58.6734858993" lon="16.021598205">
        <ele>99.15</ele>
        <time>2012-08-14T15:20:47Z</time>
      </trkpt>
      <trkpt lat="58.6733263917" lon="16.0218836088">
        <ele>98.67</ele>
        <time>2012-08-14T15:20:55Z</time>
      </trkpt>
      <trkpt lat="58.6730533093" lon="16.0220684297">
        <ele>100.11</ele>
        <time>2012-08-14T15:21:07Z</time>
      </trkpt>
      <trkpt lat="58.6730418261" lon="16.0220830981">
        <ele>100.11</ele>
        <time>2012-08-14T15:21:08Z</time>
      </trkpt>
      <trkpt lat="58.6729493737" lon="16.0226739384">
        <ele>101.56</ele>
        <time>2012-08-14T15:21:19Z</time>
      </trkpt>
      <trkpt lat="58.6729415786" lon="16.0227316059">
        <ele>102.04</ele>
        <time>2012-08-14T15:21:20Z</time>
      </trkpt>
      <trkpt lat="58.672858011" lon="16.0226786323">
        <ele>102.04</ele>
        <time>2012-08-14T15:21:22Z</time>
      </trkpt>
      <trkpt lat="58.6725721881" lon="16.0226864275">
        <ele>103.96</ele>
        <time>2012-08-14T15:21:33Z</time>
      </trkpt>
      <trkpt lat="58.6725415103" lon="16.0227069631">
        <ele>104.44</ele>
        <time>2012-08-14T15:21:35Z</time>
      </trkpt>
      <trkpt lat="58.67249256" lon="16.0227592662">
        <ele>105.4</ele>
        <time>2012-08-14T15:21:38Z</time>
      </trkpt>
      <trkpt lat="58.6724593677" lon="16.0227828193">
        <ele>105.88</ele>
        <time>2012-08-14T15:21:40Z</time>
      </trkpt>
      <trkpt lat="58.6723570246" lon="16.0230092984">
        <ele>107.81</ele>
        <time>2012-08-14T15:21:46Z</time>
      </trkpt>
      <trkpt lat="58.6722698528" lon="16.0230357852">
        <ele>109.25</ele>
        <time>2012-08-14T15:21:50Z</time>
      </trkpt>
      <trkpt lat="58.6720624845" lon="16.023323033">
        <ele>110.69</ele>
        <time>2012-08-14T15:22:00Z</time>
      </trkpt>
      <trkpt lat="58.6720226705" lon="16.0233684629">
        <ele>111.17</ele>
        <time>2012-08-14T15:22:02Z</time>
      </trkpt>
      <trkpt lat="58.6719372589" lon="16.0235515237">
        <ele>111.65</ele>
        <time>2012-08-14T15:22:06Z</time>
      </trkpt>
      <trkpt lat="58.6718816869" lon="16.0239608958">
        <ele>111.65</ele>
        <time>2012-08-14T15:22:13Z</time>
      </trkpt>
      <trkpt lat="58.6717113666" lon="16.024328107">
        <ele>109.73</ele>
        <time>2012-08-14T15:22:23Z</time>
      </trkpt>
      <trkpt lat="58.6715013999" lon="16.0245048814">
        <ele>108.77</ele>
        <time>2012-08-14T15:22:33Z</time>
      </trkpt>
      <trkpt lat="58.6713569798" lon="16.0245900415">
        <ele>108.77</ele>
        <time>2012-08-14T15:22:42Z</time>
      </trkpt>
      <trkpt lat="58.6710650381" lon="16.0244797356">
        <ele>108.77</ele>
        <time>2012-08-14T15:22:55Z</time>
      </trkpt>
      <trkpt lat="58.6709751841" lon="16.0245019477">
        <ele>108.77</ele>
        <time>2012-08-14T15:22:57Z</time>
      </trkpt>
      <trkpt lat="58.6708487011" lon="16.0245804023">
        <ele>108.77</ele>
        <time>2012-08-14T15:23:00Z</time>
      </trkpt>
      <trkpt lat="58.6705524847" lon="16.0252107214">
        <ele>106.36</ele>
        <time>2012-08-14T15:23:12Z</time>
      </trkpt>
      <trkpt lat="58.6705429293" lon="16.0252316762">
        <ele>106.36</ele>
        <time>2012-08-14T15:23:13Z</time>
      </trkpt>
      <trkpt lat="58.6704012752" lon="16.0253069457">
        <ele>106.84</ele>
        <time>2012-08-14T15:23:19Z</time>
      </trkpt>
      <trkpt lat="58.670309661" lon="16.0254865699">
        <ele>106.84</ele>
        <time>2012-08-14T15:23:23Z</time>
      </trkpt>
      <trkpt lat="58.6702296976" lon="16.0258562956">
        <ele>106.36</ele>
        <time>2012-08-14T15:23:28Z</time>
      </trkpt>
      <trkpt lat="58.670115117" lon="16.0261297133">
        <ele>105.4</ele>
        <time>2012-08-14T15:23:34Z</time>
      </trkpt>
      <trkpt lat="58.6699288711" lon="16.0266989283">
        <ele>103.48</ele>
        <time>2012-08-14T15:23:44Z</time>
      </trkpt>
      <trkpt lat="58.6698386818" lon="16.0268916283">
        <ele>103.48</ele>
        <time>2012-08-14T15:23:49Z</time>
      </trkpt>
      <trkpt lat="58.6696165614" lon="16.0273450054">
        <ele>100.6</ele>
        <time>2012-08-14T15:24:00Z</time>
      </trkpt>
      <trkpt lat="58.6695601512" lon="16.0275765136">
        <ele>100.11</ele>
        <time>2012-08-14T15:24:05Z</time>
      </trkpt>
      <trkpt lat="58.6693874002" lon="16.0279722232">
        <ele>100.6</ele>
        <time>2012-08-14T15:24:14Z</time>
      </trkpt>
      <trkpt lat="58.669329565" lon="16.0280078463">
        <ele>100.11</ele>
        <time>2012-08-14T15:24:17Z</time>
      </trkpt>
      <trkpt lat="58.6692597438" lon="16.028008014">
        <ele>101.08</ele>
        <time>2012-08-14T15:24:20Z</time>
      </trkpt>
      <trkpt lat="58.6690667924" lon="16.0280291364">
        <ele>101.56</ele>
        <time>2012-08-14T15:24:29Z</time>
      </trkpt>
      <trkpt lat="58.6688165087" lon="16.0281858779">
        <ele>100.6</ele>
        <time>2012-08-14T15:24:37Z</time>
      </trkpt>
      <trkpt lat="58.6687092204" lon="16.0282504186">
        <ele>99.63</ele>
        <time>2012-08-14T15:24:41Z</time>
      </trkpt>
      <trkpt lat="58.6685917899" lon="16.0284296237">
        <ele>98.67</ele>
        <time>2012-08-14T15:24:46Z</time>
      </trkpt>
      <trkpt lat="58.6684426758" lon="16.0286006983">
        <ele>97.71</ele>
        <time>2012-08-14T15:24:52Z</time>
      </trkpt>
      <trkpt lat="58.6682892032" lon="16.0286069009">
        <ele>95.79</ele>
        <time>2012-08-14T15:24:59Z</time>
      </trkpt>
      <trkpt lat="58.6682833359" lon="16.0288869403">
        <ele>95.31</ele>
        <time>2012-08-14T15:25:03Z</time>
      </trkpt>
      <trkpt lat="58.6682800669" lon="16.0296167526">
        <ele>92.42</ele>
        <time>2012-08-14T15:25:13Z</time>
      </trkpt>
      <trkpt lat="58.6682489701" lon="16.0297644418">
        <ele>89.54</ele>
        <time>2012-08-14T15:25:17Z</time>
      </trkpt>
      <trkpt lat="58.6681737844" lon="16.0301062558">
        <ele>89.54</ele>
        <time>2012-08-14T15:25:25Z</time>
      </trkpt>
      <trkpt lat="58.6682420969" lon="16.0308291111">
        <ele>89.06</ele>
        <time>2012-08-14T15:25:37Z</time>
      </trkpt>
      <trkpt lat="58.6683218926" lon="16.031378461">
        <ele>89.54</ele>
        <time>2012-08-14T15:25:49Z</time>
      </trkpt>
      <trkpt lat="58.6683256645" lon="16.0314492881">
        <ele>89.54</ele>
        <time>2012-08-14T15:25:50Z</time>
      </trkpt>
      <trkpt lat="58.6682739481" lon="16.0316876695">
        <ele>89.54</ele>
        <time>2012-08-14T15:25:56Z</time>
      </trkpt>
      <trkpt lat="58.6681760475" lon="16.0320963711">
        <ele>89.54</ele>
        <time>2012-08-14T15:26:06Z</time>
      </trkpt>
      <trkpt lat="58.6681478005" lon="16.0328812525">
        <ele>89.54</ele>
        <time>2012-08-14T15:26:19Z</time>
      </trkpt>
      <trkpt lat="58.6681164522" lon="16.0331238247">
        <ele>89.54</ele>
        <time>2012-08-14T15:26:24Z</time>
      </trkpt>
      <trkpt lat="58.6679576151" lon="16.0332849249">
        <ele>89.54</ele>
        <time>2012-08-14T15:26:31Z</time>
      </trkpt>
      <trkpt lat="58.6678685993" lon="16.0334406607">
        <ele>89.54</ele>
        <time>2012-08-14T15:26:36Z</time>
      </trkpt>
      <trkpt lat="58.6678361613" lon="16.0335471947">
        <ele>89.54</ele>
        <time>2012-08-14T15:26:38Z</time>
      </trkpt>
      <trkpt lat="58.6676758993" lon="16.0339987278">
        <ele>90.02</ele>
        <time>2012-08-14T15:26:50Z</time>
      </trkpt>
      <trkpt lat="58.6675716285" lon="16.0347178113">
        <ele>89.54</ele>
        <time>2012-08-14T15:27:03Z</time>
      </trkpt>
      <trkpt lat="58.6674689502" lon="16.0349282809">
        <ele>89.54</ele>
        <time>2012-08-14T15:27:09Z</time>
      </trkpt>
      <trkpt lat="58.6674464028" lon="16.0351426061">
        <ele>90.02</ele>
        <time>2012-08-14T15:27:11Z</time>
      </trkpt>
      <trkpt lat="58.6674201675" lon="16.0354294349">
        <ele>90.02</ele>
        <time>2012-08-14T15:27:16Z</time>
      </trkpt>
      <trkpt lat="58.6673669424" lon="16.0356327798">
        <ele>89.06</ele>
        <time>2012-08-14T15:27:20Z</time>
      </trkpt>
      <trkpt lat="58.6673746537" lon="16.0357496236">
        <ele>89.54</ele>
        <time>2012-08-14T15:27:22Z</time>
      </trkpt>
      <trkpt lat="58.6674791761" lon="16.0358454287">
        <ele>92.42</ele>
        <time>2012-08-14T15:27:29Z</time>
      </trkpt>
      <trkpt lat="58.6675442196" lon="16.0358978994">
        <ele>93.87</ele>
        <time>2012-08-14T15:27:33Z</time>
      </trkpt>
      <trkpt lat="58.6675725505" lon="16.035920782">
        <ele>94.83</ele>
        <time>2012-08-14T15:27:35Z</time>
      </trkpt>
      <trkpt lat="58.6676449701" lon="16.0359921958">
        <ele>96.27</ele>
        <time>2012-08-14T15:27:38Z</time>
      </trkpt>
      <trkpt lat="58.6677561142" lon="16.0362337623">
        <ele>97.71</ele>
        <time>2012-08-14T15:27:43Z</time>
      </trkpt>
      <trkpt lat="58.6678513326" lon="16.036450183">
        <ele>99.15</ele>
        <time>2012-08-14T15:27:50Z</time>
      </trkpt>
      <trkpt lat="58.6679004505" lon="16.0364843812">
        <ele>99.15</ele>
        <time>2012-08-14T15:27:52Z</time>
      </trkpt>
      <trkpt lat="58.6681331322" lon="16.0368052404">
        <ele>100.6</ele>
        <time>2012-08-14T15:28:02Z</time>
      </trkpt>
      <trkpt lat="58.6682349723" lon="16.0368613154">
        <ele>99.63</ele>
        <time>2012-08-14T15:28:06Z</time>
      </trkpt>
      <trkpt lat="58.6683591083" lon="16.0366750695">
        <ele>100.6</ele>
        <time>2012-08-14T15:28:13Z</time>
      </trkpt>
      <trkpt lat="58.6685460247" lon="16.0365175735">
        <ele>97.23</ele>
        <time>2012-08-14T15:28:22Z</time>
      </trkpt>
      <trkpt lat="58.6688039359" lon="16.0363143962">
        <ele>93.87</ele>
        <time>2012-08-14T15:28:34Z</time>
      </trkpt>
      <trkpt lat="58.6688336916" lon="16.0363459121">
        <ele>92.9</ele>
        <time>2012-08-14T15:28:36Z</time>
      </trkpt>
      <trkpt lat="58.6688615195" lon="16.0363796074">
        <ele>91.46</ele>
        <time>2012-08-14T15:28:38Z</time>
      </trkpt>
      <trkpt lat="58.668915499" lon="16.0364337545">
        <ele>90.5</ele>
        <time>2012-08-14T15:28:40Z</time>
      </trkpt>
      <trkpt lat="58.6689398065" lon="16.0364669468">
        <ele>90.5</ele>
        <time>2012-08-14T15:28:41Z</time>
      </trkpt>
      <trkpt lat="58.6690719891" lon="16.0366408713">
        <ele>90.02</ele>
        <time>2012-08-14T15:28:47Z</time>
      </trkpt>
      <trkpt lat="58.6691712309" lon="16.0365915857">
        <ele>90.98</ele>
        <time>2012-08-14T15:28:52Z</time>
      </trkpt>
      <trkpt lat="58.6693836283" lon="16.0362490173">
        <ele>90.02</ele>
        <time>2012-08-14T15:29:08Z</time>
      </trkpt>
      <trkpt lat="58.6695169006" lon="16.0361938644">
        <ele>90.5</ele>
        <time>2012-08-14T15:29:14Z</time>
      </trkpt>
      <trkpt lat="58.6699370015" lon="16.0363449901">
        <ele>93.87</ele>
        <time>2012-08-14T15:29:23Z</time>
      </trkpt>
      <trkpt lat="58.670230452" lon="16.0367895663">
        <ele>97.23</ele>
        <time>2012-08-14T15:29:36Z</time>
      </trkpt>
      <trkpt lat="58.6703101639" lon="16.0369416978">
        <ele>97.71</ele>
        <time>2012-08-14T15:29:40Z</time>
      </trkpt>
      <trkpt lat="58.6705441866" lon="16.037370516">
        <ele>99.15</ele>
        <time>2012-08-14T15:29:53Z</time>
      </trkpt>
      <trkpt lat="58.6707145069" lon="16.0376120824">
        <ele>99.15</ele>
        <time>2012-08-14T15:30:01Z</time>
      </trkpt>
      <trkpt lat="58.6709886789" lon="16.0378730111">
        <ele>97.23</ele>
        <time>2012-08-14T15:30:13Z</time>
      </trkpt>
      <trkpt lat="58.6712325923" lon="16.0382706486">
        <ele>99.15</ele>
        <time>2012-08-14T15:30:25Z</time>
      </trkpt>
      <trkpt lat="58.6714576464" lon="16.0386720579">
        <ele>100.11</ele>
        <time>2012-08-14T15:30:37Z</time>
      </trkpt>
      <trkpt lat="58.6715846322" lon="16.0391111858">
        <ele>103.96</ele>
        <time>2012-08-14T15:30:50Z</time>
      </trkpt>
      <trkpt lat="58.6716640927" lon="16.0394100007">
        <ele>107.32</ele>
        <time>2012-08-14T15:30:58Z</time>
      </trkpt>
      <trkpt lat="58.6716858856" lon="16.0394522455">
        <ele>106.84</ele>
        <time>2012-08-14T15:31:00Z</time>
      </trkpt>
      <trkpt lat="58.6719347443" lon="16.0393993556">
        <ele>105.4</ele>
        <time>2012-08-14T15:31:12Z</time>
      </trkpt>
      <trkpt lat="58.6720095109" lon="16.0393550154">
        <ele>105.88</ele>
        <time>2012-08-14T15:31:16Z</time>
      </trkpt>
      <trkpt lat="58.6721063219" lon="16.0393559374">
        <ele>106.36</ele>
        <time>2012-08-14T15:31:20Z</time>
      </trkpt>
      <trkpt lat="58.6721524224" lon="16.0393591225">
        <ele>106.36</ele>
        <time>2012-08-14T15:31:22Z</time>
      </trkpt>
      <trkpt lat="58.6723252572" lon="16.0392543487">
        <ele>106.36</ele>
        <time>2012-08-14T15:31:29Z</time>
      </trkpt>
      <trkpt lat="58.6725846771" lon="16.0392142832">
        <ele>103</ele>
        <time>2012-08-14T15:31:39Z</time>
      </trkpt>
      <trkpt lat="58.6729720887" lon="16.0393734556">
        <ele>100.6</ele>
        <time>2012-08-14T15:31:49Z</time>
      </trkpt>
      <trkpt lat="58.6731784511" lon="16.0396416765">
        <ele>97.71</ele>
        <time>2012-08-14T15:31:56Z</time>
      </trkpt>
      <trkpt lat="58.6732061114" lon="16.0396648943">
        <ele>96.75</ele>
        <time>2012-08-14T15:31:57Z</time>
      </trkpt>
      <trkpt lat="58.6733750906" lon="16.0396492202">
        <ele>92.9</ele>
        <time>2012-08-14T15:32:04Z</time>
      </trkpt>
      <trkpt lat="58.6736603267" lon="16.0396626312">
        <ele>90.98</ele>
        <time>2012-08-14T15:32:13Z</time>
      </trkpt>
      <trkpt lat="58.6736832093" lon="16.039657183">
        <ele>91.46</ele>
        <time>2012-08-14T15:32:14Z</time>
      </trkpt>
      <trkpt lat="58.6740365066" lon="16.0395525768">
        <ele>91.94</ele>
        <time>2012-08-14T15:32:28Z</time>
      </trkpt>
      <trkpt lat="58.6741149612" lon="16.0396114178">
        <ele>92.42</ele>
        <time>2012-08-14T15:32:31Z</time>
      </trkpt>
      <trkpt lat="58.6741385981" lon="16.0396485496">
        <ele>91.94</ele>
        <time>2012-08-14T15:32:32Z</time>
      </trkpt>
      <trkpt lat="58.6742264405" lon="16.0396876931">
        <ele>91.94</ele>
        <time>2012-08-14T15:32:36Z</time>
      </trkpt>
      <trkpt lat="58.6744876206" lon="16.0399989132">
        <ele>91.46</ele>
        <time>2012-08-14T15:32:47Z</time>
      </trkpt>
      <trkpt lat="58.6748330388" lon="16.0405563097">
        <ele>91.94</ele>
        <time>2012-08-14T15:33:01Z</time>
      </trkpt>
      <trkpt lat="58.6750102323" lon="16.0409849603">
        <ele>93.39</ele>
        <time>2012-08-14T15:33:12Z</time>
      </trkpt>
      <trkpt lat="58.675115006" lon="16.0414305422">
        <ele>95.79</ele>
        <time>2012-08-14T15:33:21Z</time>
      </trkpt>
      <trkpt lat="58.6752880085" lon="16.041836394">
        <ele>98.67</ele>
        <time>2012-08-14T15:33:31Z</time>
      </trkpt>
      <trkpt lat="58.6753460113" lon="16.0418917984">
        <ele>99.15</ele>
        <time>2012-08-14T15:33:34Z</time>
      </trkpt>
      <trkpt lat="58.6755026691" lon="16.0417630523">
        <ele>100.11</ele>
        <time>2012-08-14T15:33:44Z</time>
      </trkpt>
      <trkpt lat="58.6758612469" lon="16.0419164412">
        <ele>100.11</ele>
        <time>2012-08-14T15:33:56Z</time>
      </trkpt>
      <trkpt lat="58.6761411186" lon="16.0421594325">
        <ele>100.6</ele>
        <time>2012-08-14T15:34:08Z</time>
      </trkpt>
      <trkpt lat="58.6764059868" lon="16.0425783601">
        <ele>100.6</ele>
        <time>2012-08-14T15:34:18Z</time>
      </trkpt>
      <trkpt lat="58.6765925679" lon="16.0430414602">
        <ele>100.6</ele>
        <time>2012-08-14T15:34:27Z</time>
      </trkpt>
      <trkpt lat="58.6767703481" lon="16.0435527563">
        <ele>100.6</ele>
        <time>2012-08-14T15:34:35Z</time>
      </trkpt>
      <trkpt lat="58.6768951546" lon="16.0437797382">
        <ele>101.56</ele>
        <time>2012-08-14T15:34:41Z</time>
      </trkpt>
      <trkpt lat="58.6769192107" lon="16.0438112542">
        <ele>102.04</ele>
        <time>2012-08-14T15:34:42Z</time>
      </trkpt>
      <trkpt lat="58.6771629564" lon="16.0439978354">
        <ele>101.56</ele>
        <time>2012-08-14T15:34:52Z</time>
      </trkpt>
      <trkpt lat="58.6774329375" lon="16.0439550038">
        <ele>101.08</ele>
        <time>2012-08-14T15:35:03Z</time>
      </trkpt>
      <trkpt lat="58.6774978973" lon="16.0439689178">
        <ele>100.6</ele>
        <time>2012-08-14T15:35:05Z</time>
      </trkpt>
      <trkpt lat="58.6778070219" lon="16.0442352109">
        <ele>100.6</ele>
        <time>2012-08-14T15:35:16Z</time>
      </trkpt>
      <trkpt lat="58.6778798606" lon="16.0443253163">
        <ele>101.08</ele>
        <time>2012-08-14T15:35:19Z</time>
      </trkpt>
      <trkpt lat="58.6781505961" lon="16.0446263943">
        <ele>102.52</ele>
        <time>2012-08-14T15:35:31Z</time>
      </trkpt>
      <trkpt lat="58.6782394443" lon="16.0447740834">
        <ele>103</ele>
        <time>2012-08-14T15:35:36Z</time>
      </trkpt>
      <trkpt lat="58.6782512628" lon="16.0448759235">
        <ele>102.52</ele>
        <time>2012-08-14T15:35:38Z</time>
      </trkpt>
      <trkpt lat="58.6784527637" lon="16.0453633312">
        <ele>104.44</ele>
        <time>2012-08-14T15:35:50Z</time>
      </trkpt>
      <trkpt lat="58.6786431167" lon="16.0458094161">
        <ele>103.96</ele>
        <time>2012-08-14T15:35:59Z</time>
      </trkpt>
      <trkpt lat="58.6787229963" lon="16.0459643137">
        <ele>104.92</ele>
        <time>2012-08-14T15:36:03Z</time>
      </trkpt>
      <trkpt lat="58.6789552588" lon="16.0463432595">
        <ele>104.92</ele>
        <time>2012-08-14T15:36:13Z</time>
      </trkpt>
      <trkpt lat="58.6792003457" lon="16.0466827266">
        <ele>103.48</ele>
        <time>2012-08-14T15:36:25Z</time>
      </trkpt>
      <trkpt lat="58.6793875135" lon="16.0470597446">
        <ele>103.96</ele>
        <time>2012-08-14T15:36:35Z</time>
      </trkpt>
      <trkpt lat="58.679558672" lon="16.0474627465">
        <ele>105.4</ele>
        <time>2012-08-14T15:36:46Z</time>
      </trkpt>
      <trkpt lat="58.6796942912" lon="16.0475952644">
        <ele>103.96</ele>
        <time>2012-08-14T15:36:52Z</time>
      </trkpt>
      <trkpt lat="58.6799889151" lon="16.047693165">
        <ele>103</ele>
        <time>2012-08-14T15:37:04Z</time>
      </trkpt>
      <trkpt lat="58.6802780908" lon="16.04809843">
        <ele>103.96</ele>
        <time>2012-08-14T15:37:17Z</time>
      </trkpt>
      <trkpt lat="58.6805752292" lon="16.0486634541">
        <ele>104.44</ele>
        <time>2012-08-14T15:37:31Z</time>
      </trkpt>
      <trkpt lat="58.6807813402" lon="16.0489834752">
        <ele>105.88</ele>
        <time>2012-08-14T15:37:41Z</time>
      </trkpt>
      <trkpt lat="58.6810341384" lon="16.0495003872">
        <ele>106.84</ele>
        <time>2012-08-14T15:37:52Z</time>
      </trkpt>
      <trkpt lat="58.6811730266" lon="16.0498414468">
        <ele>107.32</ele>
        <time>2012-08-14T15:38:00Z</time>
      </trkpt>
      <trkpt lat="58.6813234817" lon="16.050116457">
        <ele>107.81</ele>
        <time>2012-08-14T15:38:11Z</time>
      </trkpt>
      <trkpt lat="58.6816117354" lon="16.0504249949">
        <ele>105.4</ele>
        <time>2012-08-14T15:38:21Z</time>
      </trkpt>
      <trkpt lat="58.6816419102" lon="16.0510700662">
        <ele>106.36</ele>
        <time>2012-08-14T15:38:29Z</time>
      </trkpt>
      <trkpt lat="58.6817237176" lon="16.0516454838">
        <ele>106.84</ele>
        <time>2012-08-14T15:38:39Z</time>
      </trkpt>
      <trkpt lat="58.6816858314" lon="16.0518132057">
        <ele>105.4</ele>
        <time>2012-08-14T15:38:44Z</time>
      </trkpt>
      <trkpt lat="58.6816662177" lon="16.0518491641">
        <ele>105.4</ele>
        <time>2012-08-14T15:38:46Z</time>
      </trkpt>
      <trkpt lat="58.6815022677" lon="16.0519532673">
        <ele>108.77</ele>
        <time>2012-08-14T15:38:55Z</time>
      </trkpt>
      <trkpt lat="58.6813269183" lon="16.0520031396">
        <ele>110.21</ele>
        <time>2012-08-14T15:39:03Z</time>
      </trkpt>
      <trkpt lat="58.6811914667" lon="16.0522170458">
        <ele>112.13</ele>
        <time>2012-08-14T15:39:10Z</time>
      </trkpt>
      <trkpt lat="58.681070013" lon="16.052596746">
        <ele>115.01</ele>
        <time>2012-08-14T15:39:20Z</time>
      </trkpt>
      <trkpt lat="58.6807961762" lon="16.0529381409">
        <ele>118.38</ele>
        <time>2012-08-14T15:39:30Z</time>
      </trkpt>
      <trkpt lat="58.6805997044" lon="16.0530218761">
        <ele>121.74</ele>
        <time>2012-08-14T15:39:38Z</time>
      </trkpt>
      <trkpt lat="58.6803841218" lon="16.0530310962">
        <ele>124.15</ele>
        <time>2012-08-14T15:39:50Z</time>
      </trkpt>
      <trkpt lat="58.6803070921" lon="16.0530072916">
        <ele>125.11</ele>
        <time>2012-08-14T15:39:53Z</time>
      </trkpt>
      <trkpt lat="58.6801226903" lon="16.0532489419">
        <ele>126.07</ele>
        <time>2012-08-14T15:40:00Z</time>
      </trkpt>
      <trkpt lat="58.6798823811" lon="16.0536575597">
        <ele>128.47</ele>
        <time>2012-08-14T15:40:11Z</time>
      </trkpt>
      <trkpt lat="58.6797886714" lon="16.0537666082">
        <ele>128.47</ele>
        <time>2012-08-14T15:40:15Z</time>
      </trkpt>
      <trkpt lat="58.6794614419" lon="16.0536971223">
        <ele>130.88</ele>
        <time>2012-08-14T15:40:30Z</time>
      </trkpt>
      <trkpt lat="58.679321548" lon="16.0537035763">
        <ele>130.88</ele>
        <time>2012-08-14T15:40:36Z</time>
      </trkpt>
      <trkpt lat="58.6790756229" lon="16.0539541952">
        <ele>130.4</ele>
        <time>2012-08-14T15:40:47Z</time>
      </trkpt>
      <trkpt lat="58.6789633892" lon="16.0541088413">
        <ele>129.92</ele>
        <time>2012-08-14T15:40:52Z</time>
      </trkpt>
      <trkpt lat="58.6787398439" lon="16.0544027109">
        <ele>130.88</ele>
        <time>2012-08-14T15:41:02Z</time>
      </trkpt>
      <trkpt lat="58.6784556136" lon="16.0551631171">
        <ele>130.4</ele>
        <time>2012-08-14T15:41:13Z</time>
      </trkpt>
      <trkpt lat="58.67842854" lon="16.055197902">
        <ele>130.4</ele>
        <time>2012-08-14T15:41:17Z</time>
      </trkpt>
      <trkpt lat="58.6784774065" lon="16.0547050461">
        <ele>131.84</ele>
        <time>2012-08-14T15:41:28Z</time>
      </trkpt>
      <trkpt lat="58.678552676" lon="16.0541198216">
        <ele>131.84</ele>
        <time>2012-08-14T15:41:41Z</time>
      </trkpt>
      <trkpt lat="58.6787358206" lon="16.0536192544">
        <ele>132.32</ele>
        <time>2012-08-14T15:41:54Z</time>
      </trkpt>
      <trkpt lat="58.6790156923" lon="16.0532267299">
        <ele>133.28</ele>
        <time>2012-08-14T15:42:05Z</time>
      </trkpt>
      <trkpt lat="58.6790238228" lon="16.0532142408">
        <ele>133.28</ele>
        <time>2012-08-14T15:42:06Z</time>
      </trkpt>
      <trkpt lat="58.6793210451" lon="16.0527553316">
        <ele>132.8</ele>
        <time>2012-08-14T15:42:18Z</time>
      </trkpt>
      <trkpt lat="58.6793221347" lon="16.052563889">
        <ele>132.8</ele>
        <time>2012-08-14T15:42:26Z</time>
      </trkpt>
      <trkpt lat="58.6792415846" lon="16.0518755671">
        <ele>131.84</ele>
        <time>2012-08-14T15:42:40Z</time>
      </trkpt>
      <trkpt lat="58.6792113259" lon="16.0511181783">
        <ele>131.84</ele>
        <time>2012-08-14T15:42:51Z</time>
      </trkpt>
      <trkpt lat="58.6792580131" lon="16.0503912158">
        <ele>130.4</ele>
        <time>2012-08-14T15:43:05Z</time>
      </trkpt>
      <trkpt lat="58.6792383157" lon="16.0500317998">
        <ele>128.95</ele>
        <time>2012-08-14T15:43:14Z</time>
      </trkpt>
      <trkpt lat="58.6789995153" lon="16.0498698615">
        <ele>129.92</ele>
        <time>2012-08-14T15:43:24Z</time>
      </trkpt>
      <trkpt lat="58.6787350662" lon="16.0497587174">
        <ele>131.84</ele>
        <time>2012-08-14T15:43:36Z</time>
      </trkpt>
      <trkpt lat="58.6784881353" lon="16.0495573003">
        <ele>132.32</ele>
        <time>2012-08-14T15:43:48Z</time>
      </trkpt>
      <trkpt lat="58.6782779172" lon="16.0496140458">
        <ele>132.32</ele>
        <time>2012-08-14T15:43:57Z</time>
      </trkpt>
      <trkpt lat="58.6782135442" lon="16.0497355834">
        <ele>132.32</ele>
        <time>2012-08-14T15:43:59Z</time>
      </trkpt>
      <trkpt lat="58.6780369375" lon="16.0498695262">
        <ele>129.43</ele>
        <time>2012-08-14T15:44:06Z</time>
      </trkpt>
      <trkpt lat="58.6778420582" lon="16.0498262756">
        <ele>126.55</ele>
        <time>2012-08-14T15:44:15Z</time>
      </trkpt>
      <trkpt lat="58.6777575687" lon="16.0497998726">
        <ele>123.19</ele>
        <time>2012-08-14T15:44:22Z</time>
      </trkpt>
      <trkpt lat="58.6775600072" lon="16.0494851321">
        <ele>120.78</ele>
        <time>2012-08-14T15:44:35Z</time>
      </trkpt>
      <trkpt lat="58.6775040161" lon="16.0494489223">
        <ele>118.86</ele>
        <time>2012-08-14T15:44:38Z</time>
      </trkpt>
      <trkpt lat="58.6773450114" lon="16.0492698848">
        <ele>119.34</ele>
        <time>2012-08-14T15:44:47Z</time>
      </trkpt>
      <trkpt lat="58.6772211269" lon="16.048977524">
        <ele>120.78</ele>
        <time>2012-08-14T15:44:59Z</time>
      </trkpt>
      <trkpt lat="58.6771197896" lon="16.0487069562">
        <ele>119.82</ele>
        <time>2012-08-14T15:45:07Z</time>
      </trkpt>
      <trkpt lat="58.6768814921" lon="16.0481329635">
        <ele>121.26</ele>
        <time>2012-08-14T15:45:20Z</time>
      </trkpt>
      <trkpt lat="58.6767628882" lon="16.0478294548">
        <ele>119.82</ele>
        <time>2012-08-14T15:45:27Z</time>
      </trkpt>
      <trkpt lat="58.6764974333" lon="16.0474210046">
        <ele>118.38</ele>
        <time>2012-08-14T15:45:33Z</time>
      </trkpt>
      <trkpt lat="58.6764470581" lon="16.0471683741">
        <ele>118.38</ele>
        <time>2012-08-14T15:45:37Z</time>
      </trkpt>
      <trkpt lat="58.6764094234" lon="16.0470827948">
        <ele>116.94</ele>
        <time>2012-08-14T15:45:39Z</time>
      </trkpt>
      <trkpt lat="58.6762489099" lon="16.0468488559">
        <ele>115.98</ele>
        <time>2012-08-14T15:45:48Z</time>
      </trkpt>
      <trkpt lat="58.6759642605" lon="16.0465908609">
        <ele>113.57</ele>
        <time>2012-08-14T15:45:59Z</time>
      </trkpt>
      <trkpt lat="58.6759361811" lon="16.0465663858">
        <ele>114.05</ele>
        <time>2012-08-14T15:46:00Z</time>
      </trkpt>
      <trkpt lat="58.6758525297" lon="16.0462120827">
        <ele>112.13</ele>
        <time>2012-08-14T15:46:08Z</time>
      </trkpt>
      <trkpt lat="58.6758478358" lon="16.0461639706">
        <ele>112.13</ele>
        <time>2012-08-14T15:46:10Z</time>
      </trkpt>
      <trkpt lat="58.6758377776" lon="16.0461290181">
        <ele>112.13</ele>
        <time>2012-08-14T15:46:11Z</time>
      </trkpt>
      <trkpt lat="58.6758102011" lon="16.0460792296">
        <ele>112.13</ele>
        <time>2012-08-14T15:46:13Z</time>
      </trkpt>
      <trkpt lat="58.6757282261" lon="16.0459017847">
        <ele>113.09</ele>
        <time>2012-08-14T15:46:19Z</time>
      </trkpt>
      <trkpt lat="58.6756609194" lon="16.0457818396">
        <ele>113.09</ele>
        <time>2012-08-14T15:46:25Z</time>
      </trkpt>
      <trkpt lat="58.6756418925" lon="16.0457716975">
        <ele>112.61</ele>
        <time>2012-08-14T15:46:26Z</time>
      </trkpt>
      <trkpt lat="58.6753993202" lon="16.0454453062">
        <ele>112.61</ele>
        <time>2012-08-14T15:46:38Z</time>
      </trkpt>
      <trkpt lat="58.6753217038" lon="16.0451971181">
        <ele>111.65</ele>
        <time>2012-08-14T15:46:42Z</time>
      </trkpt>
      <trkpt lat="58.6753170937" lon="16.0447779391">
        <ele>109.73</ele>
        <time>2012-08-14T15:46:54Z</time>
      </trkpt>
      <trkpt lat="58.675314663" lon="16.0447591636">
        <ele>109.25</ele>
        <time>2012-08-14T15:46:55Z</time>
      </trkpt>
      <trkpt lat="58.6753141601" lon="16.044701077">
        <ele>109.73</ele>
        <time>2012-08-14T15:46:57Z</time>
      </trkpt>
      <trkpt lat="58.6753130704" lon="16.0445230454">
        <ele>113.09</ele>
        <time>2012-08-14T15:47:05Z</time>
      </trkpt>
      <trkpt lat="58.6752506252" lon="16.0443946347">
        <ele>114.05</ele>
        <time>2012-08-14T15:47:10Z</time>
      </trkpt>
      <trkpt lat="58.6752262339" lon="16.044358341">
        <ele>113.57</ele>
        <time>2012-08-14T15:47:11Z</time>
      </trkpt>
      <trkpt lat="58.6750901118" lon="16.0442779586">
        <ele>113.09</ele>
        <time>2012-08-14T15:47:15Z</time>
      </trkpt>
      <trkpt lat="58.6750420835" lon="16.0443047807">
        <ele>112.61</ele>
        <time>2012-08-14T15:47:17Z</time>
      </trkpt>
      <trkpt lat="58.6749679036" lon="16.0443243105">
        <ele>111.65</ele>
        <time>2012-08-14T15:47:21Z</time>
      </trkpt>
      <trkpt lat="58.6746929772" lon="16.0444272403">
        <ele>113.09</ele>
        <time>2012-08-14T15:47:31Z</time>
      </trkpt>
      <trkpt lat="58.6744529195" lon="16.0444777831">
        <ele>114.05</ele>
        <time>2012-08-14T15:47:40Z</time>
      </trkpt>
      <trkpt lat="58.6741789989" lon="16.044604769">
        <ele>113.09</ele>
        <time>2012-08-14T15:47:51Z</time>
      </trkpt>
      <trkpt lat="58.6741519254" lon="16.0446229577">
        <ele>113.57</ele>
        <time>2012-08-14T15:47:52Z</time>
      </trkpt>
      <trkpt lat="58.6739101075" lon="16.0446666274">
        <ele>114.05</ele>
        <time>2012-08-14T15:48:02Z</time>
      </trkpt>
      <trkpt lat="58.6738769989" lon="16.0446685553">
        <ele>115.01</ele>
        <time>2012-08-14T15:48:03Z</time>
      </trkpt>
      <trkpt lat="58.6736591533" lon="16.0447226185">
        <ele>113.57</ele>
        <time>2012-08-14T15:48:12Z</time>
      </trkpt>
      <trkpt lat="58.6735116318" lon="16.0447235405">
        <ele>113.57</ele>
        <time>2012-08-14T15:48:17Z</time>
      </trkpt>
      <trkpt lat="58.673280878" lon="16.0448024981">
        <ele>114.05</ele>
        <time>2012-08-14T15:48:25Z</time>
      </trkpt>
      <trkpt lat="58.6730137467" lon="16.0448366962">
        <ele>115.5</ele>
        <time>2012-08-14T15:48:36Z</time>
      </trkpt>
      <trkpt lat="58.6728143413" lon="16.0447600856">
        <ele>117.9</ele>
        <time>2012-08-14T15:48:46Z</time>
      </trkpt>
      <trkpt lat="58.6727062147" lon="16.0447173379">
        <ele>119.82</ele>
        <time>2012-08-14T15:48:52Z</time>
      </trkpt>
      <trkpt lat="58.6726246588" lon="16.0446151625">
        <ele>122.22</ele>
        <time>2012-08-14T15:49:04Z</time>
      </trkpt>
      <trkpt lat="58.6726296879" lon="16.0446056072">
        <ele>122.22</ele>
        <time>2012-08-14T15:49:05Z</time>
      </trkpt>
      <trkpt lat="58.672634298" lon="16.0445642844">
        <ele>121.74</ele>
        <time>2012-08-14T15:49:07Z</time>
      </trkpt>
      <trkpt lat="58.6725923885" lon="16.0443777032">
        <ele>120.78</ele>
        <time>2012-08-14T15:49:13Z</time>
      </trkpt>
      <trkpt lat="58.672577804" lon="16.044367142">
        <ele>120.3</ele>
        <time>2012-08-14T15:49:14Z</time>
      </trkpt>
      <trkpt lat="58.6723213177" lon="16.0440787207">
        <ele>120.3</ele>
        <time>2012-08-14T15:49:24Z</time>
      </trkpt>
      <trkpt lat="58.6720142886" lon="16.0440493003">
        <ele>117.42</ele>
        <time>2012-08-14T15:49:33Z</time>
      </trkpt>
      <trkpt lat="58.6717355903" lon="16.0440539941">
        <ele>117.42</ele>
        <time>2012-08-14T15:49:44Z</time>
      </trkpt>
      <trkpt lat="58.6715854704" lon="16.0439620446">
        <ele>117.42</ele>
        <time>2012-08-14T15:49:55Z</time>
      </trkpt>
      <trkpt lat="58.671572227" lon="16.0437094979">
        <ele>118.86</ele>
        <time>2012-08-14T15:50:05Z</time>
      </trkpt>
      <trkpt lat="58.671442559" lon="16.0428917594">
        <ele>120.78</ele>
        <time>2012-08-14T15:50:22Z</time>
      </trkpt>
      <trkpt lat="58.6714020744" lon="16.0427573137">
        <ele>121.26</ele>
        <time>2012-08-14T15:50:25Z</time>
      </trkpt>
      <trkpt lat="58.6711450014" lon="16.0422642063">
        <ele>121.74</ele>
        <time>2012-08-14T15:50:37Z</time>
      </trkpt>
      <trkpt lat="58.670908967" lon="16.0420125816">
        <ele>120.3</ele>
        <time>2012-08-14T15:50:48Z</time>
      </trkpt>
      <trkpt lat="58.6706150975" lon="16.0417866893">
        <ele>118.86</ele>
        <time>2012-08-14T15:50:59Z</time>
      </trkpt>
      <trkpt lat="58.670347631" lon="16.0416956618">
        <ele>117.9</ele>
        <time>2012-08-14T15:51:12Z</time>
      </trkpt>
      <trkpt lat="58.6700748" lon="16.041827593">
        <ele>116.46</ele>
        <time>2012-08-14T15:51:21Z</time>
      </trkpt>
      <trkpt lat="58.6700262688" lon="16.0418484639">
        <ele>115.98</ele>
        <time>2012-08-14T15:51:23Z</time>
      </trkpt>
      <trkpt lat="58.6700027157" lon="16.0418589413">
        <ele>115.98</ele>
        <time>2012-08-14T15:51:24Z</time>
      </trkpt>
      <trkpt lat="58.6697790865" lon="16.0419136751">
        <ele>114.05</ele>
        <time>2012-08-14T15:51:34Z</time>
      </trkpt>
      <trkpt lat="58.6694587301" lon="16.0419886932">
        <ele>111.17</ele>
        <time>2012-08-14T15:51:45Z</time>
      </trkpt>
      <trkpt lat="58.6691922694" lon="16.0421259049">
        <ele>108.77</ele>
        <time>2012-08-14T15:51:56Z</time>
      </trkpt>
      <trkpt lat="58.6690197699" lon="16.0421370529">
        <ele>107.81</ele>
        <time>2012-08-14T15:52:01Z</time>
      </trkpt>
      <trkpt lat="58.6689348612" lon="16.041962374">
        <ele>107.32</ele>
        <time>2012-08-14T15:52:08Z</time>
      </trkpt>
      <trkpt lat="58.6687327735" lon="16.0420118272">
        <ele>105.4</ele>
        <time>2012-08-14T15:52:20Z</time>
      </trkpt>
      <trkpt lat="58.6686570849" lon="16.0419787187">
        <ele>104.44</ele>
        <time>2012-08-14T15:52:23Z</time>
      </trkpt>
      <trkpt lat="58.6684442684" lon="16.0417910479">
        <ele>103</ele>
        <time>2012-08-14T15:52:36Z</time>
      </trkpt>
      <trkpt lat="58.6683001835" lon="16.041602036">
        <ele>102.52</ele>
        <time>2012-08-14T15:52:47Z</time>
      </trkpt>
      <trkpt lat="58.6682158615" lon="16.0414613038">
        <ele>102.04</ele>
        <time>2012-08-14T15:52:51Z</time>
      </trkpt>
      <trkpt lat="58.668154506" lon="16.0410702042">
        <ele>98.67</ele>
        <time>2012-08-14T15:53:05Z</time>
      </trkpt>
      <trkpt lat="58.668056773" lon="16.0406504385">
        <ele>95.31</ele>
        <time>2012-08-14T15:53:14Z</time>
      </trkpt>
      <trkpt lat="58.6679610517" lon="16.0401968099">
        <ele>91.94</ele>
        <time>2012-08-14T15:53:20Z</time>
      </trkpt>
      <trkpt lat="58.6679101735" lon="16.0399652179">
        <ele>88.58</ele>
        <time>2012-08-14T15:53:26Z</time>
      </trkpt>
      <trkpt lat="58.6678606365" lon="16.0398744419">
        <ele>87.14</ele>
        <time>2012-08-14T15:53:29Z</time>
      </trkpt>
      <trkpt lat="58.667810848" lon="16.0397681594">
        <ele>84.25</ele>
        <time>2012-08-14T15:53:32Z</time>
      </trkpt>
      <trkpt lat="58.6677181441" lon="16.0393644869">
        <ele>82.81</ele>
        <time>2012-08-14T15:53:43Z</time>
      </trkpt>
      <trkpt lat="58.6675026454" lon="16.0388605669">
        <ele>83.77</ele>
        <time>2012-08-14T15:53:54Z</time>
      </trkpt>
      <trkpt lat="58.6672882363" lon="16.038406603">
        <ele>84.25</ele>
        <time>2012-08-14T15:53:58Z</time>
      </trkpt>
      <trkpt lat="58.6672644317" lon="16.0383036733">
        <ele>84.73</ele>
        <time>2012-08-14T15:54:00Z</time>
      </trkpt>
      <trkpt lat="58.6672593188" lon="16.0382137354">
        <ele>85.21</ele>
        <time>2012-08-14T15:54:02Z</time>
      </trkpt>
      <trkpt lat="58.6669489369" lon="16.0368323978">
        <ele>85.69</ele>
        <time>2012-08-14T15:54:08Z</time>
      </trkpt>
      <trkpt lat="58.6670980509" lon="16.0362775158">
        <ele>89.06</ele>
        <time>2012-08-14T15:54:22Z</time>
      </trkpt>
      <trkpt lat="58.6671255436" lon="16.0357721709">
        <ele>90.5</ele>
        <time>2012-08-14T15:54:35Z</time>
      </trkpt>
      <trkpt lat="58.6670785211" lon="16.0352558456">
        <ele>90.5</ele>
        <time>2012-08-14T15:54:45Z</time>
      </trkpt>
      <trkpt lat="58.6670293193" lon="16.03469803">
        <ele>90.02</ele>
        <time>2012-08-14T15:54:56Z</time>
      </trkpt>
      <trkpt lat="58.6669844761" lon="16.0341067705">
        <ele>90.5</ele>
        <time>2012-08-14T15:55:08Z</time>
      </trkpt>
      <trkpt lat="58.6668911856" lon="16.0339754261">
        <ele>90.02</ele>
        <time>2012-08-14T15:55:14Z</time>
      </trkpt>
      <trkpt lat="58.6664399039" lon="16.0338610969">
        <ele>88.58</ele>
        <time>2012-08-14T15:55:23Z</time>
      </trkpt>
      <trkpt lat="58.6661624629" lon="16.0336784553">
        <ele>87.62</ele>
        <time>2012-08-14T15:55:33Z</time>
      </trkpt>
      <trkpt lat="58.6660467088" lon="16.0335888527">
        <ele>85.69</ele>
        <time>2012-08-14T15:55:37Z</time>
      </trkpt>
      <trkpt lat="58.6656633206" lon="16.0335415788">
        <ele>84.73</ele>
        <time>2012-08-14T15:55:48Z</time>
      </trkpt>
      <trkpt lat="58.6655627377" lon="16.0335634556">
        <ele>84.73</ele>
        <time>2012-08-14T15:55:51Z</time>
      </trkpt>
      <trkpt lat="58.6650502682" lon="16.0337237176">
        <ele>84.73</ele>
        <time>2012-08-14T15:56:07Z</time>
      </trkpt>
      <trkpt lat="58.6648117192" lon="16.0338828899">
        <ele>85.69</ele>
        <time>2012-08-14T15:56:17Z</time>
      </trkpt>
      <trkpt lat="58.6647825502" lon="16.0338943731">
        <ele>85.69</ele>
        <time>2012-08-14T15:56:18Z</time>
      </trkpt>
      <trkpt lat="58.6646447517" lon="16.0339716543">
        <ele>86.66</ele>
        <time>2012-08-14T15:56:22Z</time>
      </trkpt>
      <trkpt lat="58.6642938852" lon="16.0342078563">
        <ele>88.1</ele>
        <time>2012-08-14T15:56:33Z</time>
      </trkpt>
      <trkpt lat="58.6640192103" lon="16.0343687888">
        <ele>89.06</ele>
        <time>2012-08-14T15:56:44Z</time>
      </trkpt>
      <trkpt lat="58.6638444476" lon="16.0344578885">
        <ele>88.58</ele>
        <time>2012-08-14T15:56:51Z</time>
      </trkpt>
      <trkpt lat="58.66377756" lon="16.0345001332">
        <ele>88.1</ele>
        <time>2012-08-14T15:56:54Z</time>
      </trkpt>
      <trkpt lat="58.6636538431" lon="16.0346168093">
        <ele>88.1</ele>
        <time>2012-08-14T15:56:59Z</time>
      </trkpt>
      <trkpt lat="58.6634264421" lon="16.0349224973">
        <ele>87.14</ele>
        <time>2012-08-14T15:57:08Z</time>
      </trkpt>
      <trkpt lat="58.6631527729" lon="16.0350906383">
        <ele>87.62</ele>
        <time>2012-08-14T15:57:19Z</time>
      </trkpt>
      <trkpt lat="58.6630210932" lon="16.0350706894">
        <ele>87.62</ele>
        <time>2012-08-14T15:57:24Z</time>
      </trkpt>
      <trkpt lat="58.6628870666" lon="16.0350621399">
        <ele>87.62</ele>
        <time>2012-08-14T15:57:30Z</time>
      </trkpt>
      <trkpt lat="58.6627719831" lon="16.0350199789">
        <ele>87.14</ele>
        <time>2012-08-14T15:57:35Z</time>
      </trkpt>
      <trkpt lat="58.662755806" lon="16.0350002814">
        <ele>87.14</ele>
        <time>2012-08-14T15:57:36Z</time>
      </trkpt>
      <trkpt lat="58.6626876611" lon="16.0349287838">
        <ele>87.14</ele>
        <time>2012-08-14T15:57:40Z</time>
      </trkpt>
      <trkpt lat="58.6624824721" lon="16.0344397835">
        <ele>88.1</ele>
        <time>2012-08-14T15:57:52Z</time>
      </trkpt>
      <trkpt lat="58.6624522973" lon="16.0339615121">
        <ele>89.06</ele>
        <time>2012-08-14T15:58:03Z</time>
      </trkpt>
      <trkpt lat="58.66262706" lon="16.0334764514">
        <ele>91.46</ele>
        <time>2012-08-14T15:58:19Z</time>
      </trkpt>
      <trkpt lat="58.6626708135" lon="16.0333231464">
        <ele>91.46</ele>
        <time>2012-08-14T15:58:24Z</time>
      </trkpt>
      <trkpt lat="58.6626799498" lon="16.0332052968">
        <ele>91.94</ele>
        <time>2012-08-14T15:58:28Z</time>
      </trkpt>
      <trkpt lat="58.6626765132" lon="16.032554945">
        <ele>94.35</ele>
        <time>2012-08-14T15:58:38Z</time>
      </trkpt>
      <trkpt lat="58.6626632698" lon="16.0321170744">
        <ele>97.23</ele>
        <time>2012-08-14T15:58:46Z</time>
      </trkpt>
      <trkpt lat="58.6626039259" lon="16.0315380525">
        <ele>100.11</ele>
        <time>2012-08-14T15:58:57Z</time>
      </trkpt>
      <trkpt lat="58.6626637727" lon="16.0311643034">
        <ele>101.08</ele>
        <time>2012-08-14T15:59:07Z</time>
      </trkpt>
      <trkpt lat="58.6627097055" lon="16.0307627264">
        <ele>101.56</ele>
        <time>2012-08-14T15:59:19Z</time>
      </trkpt>
      <trkpt lat="58.662706688" lon="16.0307403468">
        <ele>101.56</ele>
        <time>2012-08-14T15:59:20Z</time>
      </trkpt>
      <trkpt lat="58.6626686342" lon="16.0304750595">
        <ele>101.56</ele>
        <time>2012-08-14T15:59:27Z</time>
      </trkpt>
      <trkpt lat="58.6625146586" lon="16.0299050901">
        <ele>102.04</ele>
        <time>2012-08-14T15:59:38Z</time>
      </trkpt>
      <trkpt lat="58.662540894" lon="16.0295325983">
        <ele>102.52</ele>
        <time>2012-08-14T15:59:45Z</time>
      </trkpt>
      <trkpt lat="58.6624964699" lon="16.0291630402">
        <ele>103.96</ele>
        <time>2012-08-14T15:59:54Z</time>
      </trkpt>
      <trkpt lat="58.6623807997" lon="16.0288962442">
        <ele>107.32</ele>
        <time>2012-08-14T16:00:02Z</time>
      </trkpt>
      <trkpt lat="58.662317181" lon="16.0287811607">
        <ele>108.77</ele>
        <time>2012-08-14T16:00:05Z</time>
      </trkpt>
      <trkpt lat="58.66228709" lon="16.0287251696">
        <ele>110.21</ele>
        <time>2012-08-14T16:00:07Z</time>
      </trkpt>
      <trkpt lat="58.6621758621" lon="16.0285692662">
        <ele>113.57</ele>
        <time>2012-08-14T16:00:15Z</time>
      </trkpt>
      <trkpt lat="58.6621262413" lon="16.0284908116">
        <ele>115.98</ele>
        <time>2012-08-14T16:00:20Z</time>
      </trkpt>
      <trkpt lat="58.6619256623" lon="16.0283930786">
        <ele>116.94</ele>
        <time>2012-08-14T16:00:28Z</time>
      </trkpt>
      <trkpt lat="58.6617343873" lon="16.0282848682">
        <ele>117.42</ele>
        <time>2012-08-14T16:00:40Z</time>
      </trkpt>
      <trkpt lat="58.6616653204" lon="16.0285231657">
        <ele>117.9</ele>
        <time>2012-08-14T16:00:44Z</time>
      </trkpt>
      <trkpt lat="58.6615059804" lon="16.0290428437">
        <ele>119.34</ele>
        <time>2012-08-14T16:00:57Z</time>
      </trkpt>
      <trkpt lat="58.6614276934" lon="16.0292232223">
        <ele>119.82</ele>
        <time>2012-08-14T16:01:01Z</time>
      </trkpt>
      <trkpt lat="58.6613413598" lon="16.0294771101">
        <ele>121.26</ele>
        <time>2012-08-14T16:01:07Z</time>
      </trkpt>
      <trkpt lat="58.6611730512" lon="16.0298319161">
        <ele>123.67</ele>
        <time>2012-08-14T16:01:16Z</time>
      </trkpt>
      <trkpt lat="58.6611413676" lon="16.0299051739">
        <ele>123.19</ele>
        <time>2012-08-14T16:01:19Z</time>
      </trkpt>
      <trkpt lat="58.6611018889" lon="16.0299720615">
        <ele>123.67</ele>
        <time>2012-08-14T16:01:22Z</time>
      </trkpt>
      <trkpt lat="58.6610111129" lon="16.0305659194">
        <ele>123.67</ele>
        <time>2012-08-14T16:01:34Z</time>
      </trkpt>
      <trkpt lat="58.6609744839" lon="16.0306740459">
        <ele>123.67</ele>
        <time>2012-08-14T16:01:37Z</time>
      </trkpt>
      <trkpt lat="58.6609430518" lon="16.0307413526">
        <ele>125.11</ele>
        <time>2012-08-14T16:01:39Z</time>
      </trkpt>
      <trkpt lat="58.6608144734" lon="16.0309773032">
        <ele>125.59</ele>
        <time>2012-08-14T16:01:46Z</time>
      </trkpt>
      <trkpt lat="58.6607929319" lon="16.0309899598">
        <ele>125.11</ele>
        <time>2012-08-14T16:01:47Z</time>
      </trkpt>
      <trkpt lat="58.6607255414" lon="16.0310609546">
        <ele>125.59</ele>
        <time>2012-08-14T16:01:50Z</time>
      </trkpt>
      <trkpt lat="58.6605035048" lon="16.0312490445">
        <ele>126.07</ele>
        <time>2012-08-14T16:01:59Z</time>
      </trkpt>
      <trkpt lat="58.6602312606" lon="16.0315141641">
        <ele>124.63</ele>
        <time>2012-08-14T16:02:09Z</time>
      </trkpt>
      <trkpt lat="58.6601493694" lon="16.0316781141">
        <ele>124.15</ele>
        <time>2012-08-14T16:02:14Z</time>
      </trkpt>
      <trkpt lat="58.6600294244" lon="16.0321022384">
        <ele>125.11</ele>
        <time>2012-08-14T16:02:23Z</time>
      </trkpt>
      <trkpt lat="58.6599326972" lon="16.0322059225">
        <ele>125.59</ele>
        <time>2012-08-14T16:02:27Z</time>
      </trkpt>
      <trkpt lat="58.6598719284" lon="16.0322828684">
        <ele>125.11</ele>
        <time>2012-08-14T16:02:30Z</time>
      </trkpt>
      <trkpt lat="58.6596787255" lon="16.0325412825">
        <ele>126.55</ele>
        <time>2012-08-14T16:02:38Z</time>
      </trkpt>
      <trkpt lat="58.6596310325" lon="16.0325977765">
        <ele>126.07</ele>
        <time>2012-08-14T16:02:40Z</time>
      </trkpt>
      <trkpt lat="58.6595545057" lon="16.032875469">
        <ele>123.67</ele>
        <time>2012-08-14T16:02:46Z</time>
      </trkpt>
      <trkpt lat="58.6595046334" lon="16.03303615">
        <ele>125.11</ele>
        <time>2012-08-14T16:02:50Z</time>
      </trkpt>
      <trkpt lat="58.6594038829" lon="16.0333164409">
        <ele>125.11</ele>
        <time>2012-08-14T16:02:57Z</time>
      </trkpt>
      <trkpt lat="58.6592794955" lon="16.0332879424">
        <ele>124.15</ele>
        <time>2012-08-14T16:03:03Z</time>
      </trkpt>
      <trkpt lat="58.6591152102" lon="16.0334360506">
        <ele>123.19</ele>
        <time>2012-08-14T16:03:08Z</time>
      </trkpt>
      <trkpt lat="58.6590576265" lon="16.0334861744">
        <ele>123.67</ele>
        <time>2012-08-14T16:03:10Z</time>
      </trkpt>
      <trkpt lat="58.6588749848" lon="16.033736458">
        <ele>123.67</ele>
        <time>2012-08-14T16:03:18Z</time>
      </trkpt>
      <trkpt lat="58.6588638369" lon="16.0337669682">
        <ele>123.67</ele>
        <time>2012-08-14T16:03:19Z</time>
      </trkpt>
      <trkpt lat="58.6588532757" lon="16.0338126495">
        <ele>122.71</ele>
        <time>2012-08-14T16:03:21Z</time>
      </trkpt>
      <trkpt lat="58.6587386951" lon="16.0339842271">
        <ele>122.22</ele>
        <time>2012-08-14T16:03:26Z</time>
      </trkpt>
      <trkpt lat="58.6585529521" lon="16.0343129653">
        <ele>120.78</ele>
        <time>2012-08-14T16:03:37Z</time>
      </trkpt>
      <trkpt lat="58.6583255511" lon="16.0345936753">
        <ele>118.38</ele>
        <time>2012-08-14T16:03:47Z</time>
      </trkpt>
      <trkpt lat="58.6582647823" lon="16.0346622393">
        <ele>116.94</ele>
        <time>2012-08-14T16:03:51Z</time>
      </trkpt>
      <trkpt lat="58.6581719946" lon="16.0348998662">
        <ele>114.53</ele>
        <time>2012-08-14T16:03:57Z</time>
      </trkpt>
      <trkpt lat="58.6581429094" lon="16.0349871218">
        <ele>114.53</ele>
        <time>2012-08-14T16:03:59Z</time>
      </trkpt>
      <trkpt lat="58.6580503732" lon="16.0350952484">
        <ele>112.61</ele>
        <time>2012-08-14T16:04:03Z</time>
      </trkpt>
      <trkpt lat="58.6580243893" lon="16.0351159517">
        <ele>111.65</ele>
        <time>2012-08-14T16:04:04Z</time>
      </trkpt>
      <trkpt lat="58.6579774506" lon="16.0351541732">
        <ele>110.21</ele>
        <time>2012-08-14T16:04:07Z</time>
      </trkpt>
      <trkpt lat="58.6578988284" lon="16.0352911334">
        <ele>108.77</ele>
        <time>2012-08-14T16:04:10Z</time>
      </trkpt>
      <trkpt lat="58.6577450205" lon="16.035537729">
        <ele>108.29</ele>
        <time>2012-08-14T16:04:17Z</time>
      </trkpt>
      <trkpt lat="58.6576318648" lon="16.0355895292">
        <ele>105.88</ele>
        <time>2012-08-14T16:04:27Z</time>
      </trkpt>
      <trkpt lat="58.6574744526" lon="16.0356200393">
        <ele>103.96</ele>
        <time>2012-08-14T16:04:34Z</time>
      </trkpt>
      <trkpt lat="58.6574099958" lon="16.0355710052">
        <ele>102.52</ele>
        <time>2012-08-14T16:04:37Z</time>
      </trkpt>
      <trkpt lat="58.6572325509" lon="16.0353365634">
        <ele>99.63</ele>
        <time>2012-08-14T16:04:47Z</time>
      </trkpt>
      <trkpt lat="58.6571017932" lon="16.0351441149">
        <ele>100.6</ele>
        <time>2012-08-14T16:05:00Z</time>
      </trkpt>
      <trkpt lat="58.6570944171" lon="16.035071779">
        <ele>100.6</ele>
        <time>2012-08-14T16:05:04Z</time>
      </trkpt>
      <trkpt lat="58.657092154" lon="16.0347760655">
        <ele>101.08</ele>
        <time>2012-08-14T16:05:11Z</time>
      </trkpt>
      <trkpt lat="58.657146804" lon="16.0340397991">
        <ele>101.56</ele>
        <time>2012-08-14T16:05:23Z</time>
      </trkpt>
      <trkpt lat="58.6571021285" lon="16.0336658824">
        <ele>101.56</ele>
        <time>2012-08-14T16:05:30Z</time>
      </trkpt>
      <trkpt lat="58.6570234224" lon="16.0333521478">
        <ele>102.52</ele>
        <time>2012-08-14T16:05:39Z</time>
      </trkpt>
      <trkpt lat="58.6569443811" lon="16.0327732936">
        <ele>103</ele>
        <time>2012-08-14T16:05:52Z</time>
      </trkpt>
      <trkpt lat="58.6569940019" lon="16.0322290566">
        <ele>104.44</ele>
        <time>2012-08-14T16:06:07Z</time>
      </trkpt>
      <trkpt lat="58.6571152043" lon="16.0317832232">
        <ele>106.36</ele>
        <time>2012-08-14T16:06:20Z</time>
      </trkpt>
      <trkpt lat="58.6571722012" lon="16.0316067003">
        <ele>106.36</ele>
        <time>2012-08-14T16:06:26Z</time>
      </trkpt>
      <trkpt lat="58.6573302839" lon="16.0311259143">
        <ele>108.29</ele>
        <time>2012-08-14T16:06:36Z</time>
      </trkpt>
      <trkpt lat="58.657384431" lon="16.0309514031">
        <ele>108.29</ele>
        <time>2012-08-14T16:06:39Z</time>
      </trkpt>
      <trkpt lat="58.6575387418" lon="16.0302062519">
        <ele>110.69</ele>
        <time>2012-08-14T16:06:53Z</time>
      </trkpt>
      <trkpt lat="58.6575581878" lon="16.0293506272">
        <ele>112.13</ele>
        <time>2012-08-14T16:07:06Z</time>
      </trkpt>
      <trkpt lat="58.6576542445" lon="16.0288038757">
        <ele>113.57</ele>
        <time>2012-08-14T16:07:17Z</time>
      </trkpt>
      <trkpt lat="58.657711409" lon="16.0284825135">
        <ele>115.5</ele>
        <time>2012-08-14T16:07:28Z</time>
      </trkpt>
      <trkpt lat="58.6578984931" lon="16.028320659">
        <ele>116.94</ele>
        <time>2012-08-14T16:07:37Z</time>
      </trkpt>
      <trkpt lat="58.6579937115" lon="16.0282292962">
        <ele>117.42</ele>
        <time>2012-08-14T16:07:41Z</time>
      </trkpt>
      <trkpt lat="58.6580398958" lon="16.0281509254">
        <ele>117.42</ele>
        <time>2012-08-14T16:07:43Z</time>
      </trkpt>
      <trkpt lat="58.6581626069" lon="16.0277627595">
        <ele>118.38</ele>
        <time>2012-08-14T16:07:50Z</time>
      </trkpt>
      <trkpt lat="58.6582937837" lon="16.0271083005">
        <ele>120.3</ele>
        <time>2012-08-14T16:08:08Z</time>
      </trkpt>
      <trkpt lat="58.6584079452" lon="16.0265037138">
        <ele>121.74</ele>
        <time>2012-08-14T16:08:23Z</time>
      </trkpt>
      <trkpt lat="58.6584870704" lon="16.0259225965">
        <ele>122.22</ele>
        <time>2012-08-14T16:08:32Z</time>
      </trkpt>
      <trkpt lat="58.6586815305" lon="16.0252532177">
        <ele>123.19</ele>
        <time>2012-08-14T16:08:43Z</time>
      </trkpt>
      <trkpt lat="58.6589188222" lon="16.0245934781">
        <ele>122.71</ele>
        <time>2012-08-14T16:08:55Z</time>
      </trkpt>
      <trkpt lat="58.6590865441" lon="16.0242775641">
        <ele>122.71</ele>
        <time>2012-08-14T16:09:02Z</time>
      </trkpt>
      <trkpt lat="58.6592460517" lon="16.0235749092">
        <ele>122.71</ele>
        <time>2012-08-14T16:09:16Z</time>
      </trkpt>
      <trkpt lat="58.6594444513" lon="16.0229806323">
        <ele>123.67</ele>
        <time>2012-08-14T16:09:28Z</time>
      </trkpt>
      <trkpt lat="58.659714181" lon="16.0226740222">
        <ele>123.19</ele>
        <time>2012-08-14T16:09:40Z</time>
      </trkpt>
      <trkpt lat="58.6599938851" lon="16.0223958269">
        <ele>123.19</ele>
        <time>2012-08-14T16:09:50Z</time>
      </trkpt>
      <trkpt lat="58.660080051" lon="16.0222479701">
        <ele>123.19</ele>
        <time>2012-08-14T16:09:54Z</time>
      </trkpt>
      <trkpt lat="58.6602766067" lon="16.0217883065">
        <ele>122.71</ele>
        <time>2012-08-14T16:10:06Z</time>
      </trkpt>
      <trkpt lat="58.660394121" lon="16.0215484165">
        <ele>121.74</ele>
        <time>2012-08-14T16:10:11Z</time>
      </trkpt>
      <trkpt lat="58.6606663652" lon="16.0206266586">
        <ele>118.38</ele>
        <time>2012-08-14T16:10:27Z</time>
      </trkpt>
      <trkpt lat="58.6607470829" lon="16.0203361418">
        <ele>117.42</ele>
        <time>2012-08-14T16:10:32Z</time>
      </trkpt>
      <trkpt lat="58.6608033255" lon="16.0201997682">
        <ele>117.42</ele>
        <time>2012-08-14T16:10:35Z</time>
      </trkpt>
      <trkpt lat="58.6609806865" lon="16.019522259">
        <ele>115.5</ele>
        <time>2012-08-14T16:10:46Z</time>
      </trkpt>
      <trkpt lat="58.6610520165" lon="16.0190390423">
        <ele>115.5</ele>
        <time>2012-08-14T16:10:54Z</time>
      </trkpt>
      <trkpt lat="58.6610401981" lon="16.0189449135">
        <ele>115.01</ele>
        <time>2012-08-14T16:10:55Z</time>
      </trkpt>
      <trkpt lat="58.6610509269" lon="16.0187695641">
        <ele>115.01</ele>
        <time>2012-08-14T16:10:58Z</time>
      </trkpt>
      <trkpt lat="58.6611163057" lon="16.0186699033">
        <ele>115.01</ele>
        <time>2012-08-14T16:11:01Z</time>
      </trkpt>
      <trkpt lat="58.6614170484" lon="16.0186300892">
        <ele>115.01</ele>
        <time>2012-08-14T16:11:13Z</time>
      </trkpt>
      <trkpt lat="58.6618017778" lon="16.018592203">
        <ele>114.53</ele>
        <time>2012-08-14T16:11:27Z</time>
      </trkpt>
      <trkpt lat="58.6621650495" lon="16.0183236469">
        <ele>113.57</ele>
        <time>2012-08-14T16:11:40Z</time>
      </trkpt>
      <trkpt lat="58.6624205299" lon="16.0181070585">
        <ele>112.61</ele>
        <time>2012-08-14T16:11:48Z</time>
      </trkpt>
      <trkpt lat="58.6624869145" lon="16.0180788115">
        <ele>112.13</ele>
        <time>2012-08-14T16:11:50Z</time>
      </trkpt>
      <trkpt lat="58.6627443228" lon="16.0178679228">
        <ele>112.13</ele>
        <time>2012-08-14T16:12:00Z</time>
      </trkpt>
      <trkpt lat="58.6630717199" lon="16.0172918346">
        <ele>113.09</ele>
        <time>2012-08-14T16:12:15Z</time>
      </trkpt>
      <trkpt lat="58.6633501668" lon="16.0166452546">
        <ele>112.61</ele>
        <time>2012-08-14T16:12:27Z</time>
      </trkpt>
      <trkpt lat="58.6633796711" lon="16.0165563226">
        <ele>113.09</ele>
        <time>2012-08-14T16:12:29Z</time>
      </trkpt>
      <trkpt lat="58.663665494" lon="16.0159554239">
        <ele>110.21</ele>
        <time>2012-08-14T16:12:43Z</time>
      </trkpt>
      <trkpt lat="58.6636850238" lon="16.0159069765">
        <ele>109.73</ele>
        <time>2012-08-14T16:12:44Z</time>
      </trkpt>
      <trkpt lat="58.6639255844" lon="16.0154081695">
        <ele>106.36</ele>
        <time>2012-08-14T16:12:55Z</time>
      </trkpt>
      <trkpt lat="58.6641389877" lon="16.0148786847">
        <ele>103.48</ele>
        <time>2012-08-14T16:13:06Z</time>
      </trkpt>
      <trkpt lat="58.6642996687" lon="16.0143159237">
        <ele>100.6</ele>
        <time>2012-08-14T16:13:15Z</time>
      </trkpt>
      <trkpt lat="58.6646212824" lon="16.0139273386">
        <ele>97.71</ele>
        <time>2012-08-14T16:13:26Z</time>
      </trkpt>
      <trkpt lat="58.6648122221" lon="16.0137661546">
        <ele>96.75</ele>
        <time>2012-08-14T16:13:33Z</time>
      </trkpt>
      <trkpt lat="58.6649607494" lon="16.0137610417">
        <ele>95.79</ele>
        <time>2012-08-14T16:13:37Z</time>
      </trkpt>
      <trkpt lat="58.6652584746" lon="16.013581166">
        <ele>95.31</ele>
        <time>2012-08-14T16:13:47Z</time>
      </trkpt>
      <trkpt lat="58.6655772384" lon="16.0133551061">
        <ele>95.31</ele>
        <time>2012-08-14T16:13:57Z</time>
      </trkpt>
      <trkpt lat="58.6658276059" lon="16.012974903">
        <ele>94.35</ele>
        <time>2012-08-14T16:14:07Z</time>
      </trkpt>
      <trkpt lat="58.6660894565" lon="16.0125642736">
        <ele>93.39</ele>
        <time>2012-08-14T16:14:20Z</time>
      </trkpt>
      <trkpt lat="58.6663336214" lon="16.0123480204">
        <ele>93.87</ele>
        <time>2012-08-14T16:14:28Z</time>
      </trkpt>
      <trkpt lat="58.6664624512" lon="16.0119117424">
        <ele>93.39</ele>
        <time>2012-08-14T16:14:36Z</time>
      </trkpt>
      <trkpt lat="58.6665467732" lon="16.0115349758">
        <ele>92.42</ele>
        <time>2012-08-14T16:14:43Z</time>
      </trkpt>
      <trkpt lat="58.6665383913" lon="16.0113192257">
        <ele>91.94</ele>
        <time>2012-08-14T16:14:47Z</time>
      </trkpt>
      <trkpt lat="58.6665146705" lon="16.0111399367">
        <ele>91.46</ele>
        <time>2012-08-14T16:14:50Z</time>
      </trkpt>
      <trkpt lat="58.6663075536" lon="16.0106271319">
        <ele>90.98</ele>
        <time>2012-08-14T16:15:01Z</time>
      </trkpt>
      <trkpt lat="58.6662850063" lon="16.0105925985">
        <ele>90.5</ele>
        <time>2012-08-14T16:15:02Z</time>
      </trkpt>
      <trkpt lat="58.6660233233" lon="16.0102627706">
        <ele>90.02</ele>
        <time>2012-08-14T16:15:13Z</time>
      </trkpt>
      <trkpt lat="58.6657702737" lon="16.0099854134">
        <ele>89.54</ele>
        <time>2012-08-14T16:15:23Z</time>
      </trkpt>
      <trkpt lat="58.6655438785" lon="16.0097564198">
        <ele>88.58</ele>
        <time>2012-08-14T16:15:32Z</time>
      </trkpt>
      <trkpt lat="58.6653198302" lon="16.0097219702">
        <ele>88.1</ele>
        <time>2012-08-14T16:15:40Z</time>
      </trkpt>
      <trkpt lat="58.6650570575" lon="16.0099190287">
        <ele>87.62</ele>
        <time>2012-08-14T16:15:49Z</time>
      </trkpt>
      <trkpt lat="58.6648092046" lon="16.0101905186">
        <ele>87.62</ele>
        <time>2012-08-14T16:15:59Z</time>
      </trkpt>
      <trkpt lat="58.664577445" lon="16.0103853978">
        <ele>87.14</ele>
        <time>2012-08-14T16:16:07Z</time>
      </trkpt>
      <trkpt lat="58.6643057037" lon="16.0104414728">
        <ele>87.14</ele>
        <time>2012-08-14T16:16:16Z</time>
      </trkpt>
      <trkpt lat="58.6641041189" lon="16.0104040895">
        <ele>86.66</ele>
        <time>2012-08-14T16:16:23Z</time>
      </trkpt>
      <trkpt lat="58.6638126802" lon="16.0104628466">
        <ele>86.66</ele>
        <time>2012-08-14T16:16:32Z</time>
      </trkpt>
      <trkpt lat="58.6635272764" lon="16.0106495954">
        <ele>87.14</ele>
        <time>2012-08-14T16:16:41Z</time>
      </trkpt>
      <trkpt lat="58.6632968578" lon="16.0108431336">
        <ele>87.14</ele>
        <time>2012-08-14T16:16:49Z</time>
      </trkpt>
      <trkpt lat="58.6630163155" lon="16.0110725462">
        <ele>87.62</ele>
        <time>2012-08-14T16:17:01Z</time>
      </trkpt>
      <trkpt lat="58.6627881601" lon="16.0112950858">
        <ele>88.58</ele>
        <time>2012-08-14T16:17:11Z</time>
      </trkpt>
      <trkpt lat="58.662704844" lon="16.0113131907">
        <ele>88.58</ele>
        <time>2012-08-14T16:17:16Z</time>
      </trkpt>
      <trkpt lat="58.6625628546" lon="16.0113712773">
        <ele>89.06</ele>
        <time>2012-08-14T16:17:23Z</time>
      </trkpt>
      <trkpt lat="58.6623706575" lon="16.0114289448">
        <ele>89.54</ele>
        <time>2012-08-14T16:17:32Z</time>
      </trkpt>
      <trkpt lat="58.6622063722" lon="16.0114540067">
        <ele>89.54</ele>
        <time>2012-08-14T16:17:38Z</time>
      </trkpt>
      <trkpt lat="58.6620574258" lon="16.0114454571">
        <ele>90.02</ele>
        <time>2012-08-14T16:17:43Z</time>
      </trkpt>
      <trkpt lat="58.6617767997" lon="16.0109658446">
        <ele>88.58</ele>
        <time>2012-08-14T16:17:54Z</time>
      </trkpt>
      <trkpt lat="58.6615215708" lon="16.0105067678">
        <ele>88.1</ele>
        <time>2012-08-14T16:18:04Z</time>
      </trkpt>
      <trkpt lat="58.661297271" lon="16.0098606907">
        <ele>87.62</ele>
        <time>2012-08-14T16:18:15Z</time>
      </trkpt>
      <trkpt lat="58.6611893121" lon="16.0094868578">
        <ele>88.1</ele>
        <time>2012-08-14T16:18:21Z</time>
      </trkpt>
      <trkpt lat="58.6612894759" lon="16.0087089334">
        <ele>86.66</ele>
        <time>2012-08-14T16:18:33Z</time>
      </trkpt>
      <trkpt lat="58.6613189802" lon="16.0085893236">
        <ele>86.18</ele>
        <time>2012-08-14T16:18:35Z</time>
      </trkpt>
      <trkpt lat="58.6614535935" lon="16.0080771055">
        <ele>86.18</ele>
        <time>2012-08-14T16:18:45Z</time>
      </trkpt>
      <trkpt lat="58.6615405977" lon="16.0075606126">
        <ele>86.18</ele>
        <time>2012-08-14T16:18:54Z</time>
      </trkpt>
      <trkpt lat="58.6616558488" lon="16.0070132744">
        <ele>86.66</ele>
        <time>2012-08-14T16:19:04Z</time>
      </trkpt>
      <trkpt lat="58.661760455" lon="16.0063625872">
        <ele>86.18</ele>
        <time>2012-08-14T16:19:15Z</time>
      </trkpt>
      <trkpt lat="58.6617591977" lon="16.0060792789">
        <ele>86.18</ele>
        <time>2012-08-14T16:19:24Z</time>
      </trkpt>
    </trkseg>
  </trk>
</gpx>